<?xml version="1.0" encoding="UTF-8" standalone="no" ?>
<gpx xmlns="http://www.topografix.com/GPX/1/1" xmlns:xsi="http://www.w3.org/2001/XMLSchema-instance" xsi:schemaLocation="http://www.topografix.com/GPX/1/1 http://www.topografix.com/GPX/1/1/gpx.xsd" version="1.1" creator="VisuGPX - https://www.visugpx.com">
  <metadata>
    <name>Diesen vers la grotte et la Madone de Falck</name>
    <desc><![CDATA[File with points/tracks from Locus Map/3.29.2]]></desc>
  </metadata>
  <trk>
    <name><![CDATA[2018-02-14 13:21:15]]></name>
    <trkseg>
      <trkpt lat="49.17732" lon="6.6759">
        <ele>180.74</ele>
        <time>2018-02-14T12:22:03.000Z</time>
      </trkpt>
      <trkpt lat="49.17742" lon="6.67586">
        <ele>183.56</ele>
        <time>2018-02-14T12:22:13.000Z</time>
      </trkpt>
      <trkpt lat="49.17747" lon="6.67595">
        <ele>186.22</ele>
        <time>2018-02-14T12:22:23.000Z</time>
      </trkpt>
      <trkpt lat="49.17752" lon="6.67615">
        <ele>184.58</ele>
        <time>2018-02-14T12:22:33.000Z</time>
      </trkpt>
      <trkpt lat="49.17756" lon="6.67631">
        <ele>183.19</ele>
        <time>2018-02-14T12:22:43.000Z</time>
      </trkpt>
      <trkpt lat="49.1776" lon="6.67647">
        <ele>182.09</ele>
        <time>2018-02-14T12:22:53.000Z</time>
      </trkpt>
      <trkpt lat="49.17755" lon="6.67662">
        <ele>179.14</ele>
        <time>2018-02-14T12:23:03.000Z</time>
      </trkpt>
      <trkpt lat="49.17756" lon="6.67677">
        <ele>176.02</ele>
        <time>2018-02-14T12:23:13.000Z</time>
      </trkpt>
      <trkpt lat="49.17758" lon="6.67693">
        <ele>174.09</ele>
        <time>2018-02-14T12:23:23.000Z</time>
      </trkpt>
      <trkpt lat="49.17755" lon="6.67713">
        <ele>170.89</ele>
        <time>2018-02-14T12:23:33.000Z</time>
      </trkpt>
      <trkpt lat="49.1776" lon="6.67719">
        <ele>172.71</ele>
        <time>2018-02-14T12:23:43.000Z</time>
      </trkpt>
      <trkpt lat="49.17758" lon="6.6774">
        <ele>170.98</ele>
        <time>2018-02-14T12:23:53.000Z</time>
      </trkpt>
      <trkpt lat="49.17756" lon="6.67767">
        <ele>169.05</ele>
        <time>2018-02-14T12:24:03.000Z</time>
      </trkpt>
      <trkpt lat="49.17762" lon="6.67777">
        <ele>168.07</ele>
        <time>2018-02-14T12:24:13.000Z</time>
      </trkpt>
      <trkpt lat="49.17776" lon="6.67779">
        <ele>167.13</ele>
        <time>2018-02-14T12:24:23.000Z</time>
      </trkpt>
      <trkpt lat="49.17782" lon="6.67793">
        <ele>168.71</ele>
        <time>2018-02-14T12:24:33.000Z</time>
      </trkpt>
      <trkpt lat="49.17789" lon="6.67813">
        <ele>167.87</ele>
        <time>2018-02-14T12:24:43.000Z</time>
      </trkpt>
      <trkpt lat="49.17793" lon="6.67836">
        <ele>165.76</ele>
        <time>2018-02-14T12:24:53.000Z</time>
      </trkpt>
      <trkpt lat="49.17798" lon="6.67855">
        <ele>164.13</ele>
        <time>2018-02-14T12:25:03.000Z</time>
      </trkpt>
      <trkpt lat="49.17801" lon="6.67871">
        <ele>162.57</ele>
        <time>2018-02-14T12:25:13.000Z</time>
      </trkpt>
      <trkpt lat="49.17806" lon="6.6789">
        <ele>162.3</ele>
        <time>2018-02-14T12:25:23.000Z</time>
      </trkpt>
      <trkpt lat="49.17807" lon="6.6791">
        <ele>162.11</ele>
        <time>2018-02-14T12:25:33.000Z</time>
      </trkpt>
      <trkpt lat="49.17812" lon="6.67926">
        <ele>162.09</ele>
        <time>2018-02-14T12:25:43.000Z</time>
      </trkpt>
      <trkpt lat="49.17815" lon="6.67946">
        <ele>161.44</ele>
        <time>2018-02-14T12:25:53.000Z</time>
      </trkpt>
      <trkpt lat="49.17821" lon="6.67958">
        <ele>160.6</ele>
        <time>2018-02-14T12:26:03.000Z</time>
      </trkpt>
      <trkpt lat="49.17835" lon="6.67961">
        <ele>160.24</ele>
        <time>2018-02-14T12:26:13.000Z</time>
      </trkpt>
      <trkpt lat="49.17844" lon="6.67963">
        <ele>159.99</ele>
        <time>2018-02-14T12:26:23.000Z</time>
      </trkpt>
      <trkpt lat="49.17857" lon="6.67966">
        <ele>159.03</ele>
        <time>2018-02-14T12:26:33.000Z</time>
      </trkpt>
      <trkpt lat="49.17859" lon="6.67964">
        <ele>158.51</ele>
        <time>2018-02-14T12:26:43.000Z</time>
      </trkpt>
      <trkpt lat="49.17855" lon="6.67952">
        <ele>178.46</ele>
        <time>2018-02-14T12:27:18.000Z</time>
      </trkpt>
      <trkpt lat="49.17852" lon="6.67945">
        <ele>192.49</ele>
        <time>2018-02-14T12:28:28.000Z</time>
      </trkpt>
      <trkpt lat="49.17862" lon="6.6795">
        <ele>189.12</ele>
        <time>2018-02-14T12:28:38.000Z</time>
      </trkpt>
      <trkpt lat="49.17871" lon="6.67949">
        <ele>187.39</ele>
        <time>2018-02-14T12:28:48.000Z</time>
      </trkpt>
      <trkpt lat="49.17875" lon="6.67948">
        <ele>180.49</ele>
        <time>2018-02-14T12:28:58.000Z</time>
      </trkpt>
      <trkpt lat="49.1788" lon="6.67942">
        <ele>172.66</ele>
        <time>2018-02-14T12:30:10.000Z</time>
      </trkpt>
      <trkpt lat="49.17891" lon="6.67946">
        <ele>169.54</ele>
        <time>2018-02-14T12:30:20.000Z</time>
      </trkpt>
      <trkpt lat="49.17902" lon="6.67948">
        <ele>169.79</ele>
        <time>2018-02-14T12:30:30.000Z</time>
      </trkpt>
      <trkpt lat="49.17913" lon="6.67955">
        <ele>169.62</ele>
        <time>2018-02-14T12:30:40.000Z</time>
      </trkpt>
      <trkpt lat="49.17924" lon="6.67963">
        <ele>171.05</ele>
        <time>2018-02-14T12:30:50.000Z</time>
      </trkpt>
      <trkpt lat="49.17937" lon="6.67968">
        <ele>172.18</ele>
        <time>2018-02-14T12:31:00.000Z</time>
      </trkpt>
      <trkpt lat="49.17949" lon="6.67975">
        <ele>173.73</ele>
        <time>2018-02-14T12:31:10.000Z</time>
      </trkpt>
      <trkpt lat="49.17963" lon="6.67982">
        <ele>175.43</ele>
        <time>2018-02-14T12:31:20.000Z</time>
      </trkpt>
      <trkpt lat="49.1797" lon="6.6799">
        <ele>174.87</ele>
        <time>2018-02-14T12:31:30.000Z</time>
      </trkpt>
      <trkpt lat="49.17974" lon="6.67994">
        <ele>173.91</ele>
        <time>2018-02-14T12:31:40.000Z</time>
      </trkpt>
      <trkpt lat="49.1798" lon="6.68">
        <ele>170.22</ele>
        <time>2018-02-14T12:31:50.000Z</time>
      </trkpt>
      <trkpt lat="49.17982" lon="6.68008">
        <ele>167.03</ele>
        <time>2018-02-14T12:32:00.000Z</time>
      </trkpt>
      <trkpt lat="49.17993" lon="6.68018">
        <ele>162.76</ele>
        <time>2018-02-14T12:32:10.000Z</time>
      </trkpt>
      <trkpt lat="49.18005" lon="6.68029">
        <ele>158.83</ele>
        <time>2018-02-14T12:32:20.000Z</time>
      </trkpt>
      <trkpt lat="49.18008" lon="6.68045">
        <ele>151.3</ele>
        <time>2018-02-14T12:32:30.000Z</time>
      </trkpt>
      <trkpt lat="49.18041" lon="6.68064">
        <ele>165.81</ele>
        <time>2018-02-14T12:32:40.000Z</time>
      </trkpt>
      <trkpt lat="49.18048" lon="6.68074">
        <ele>167.37</ele>
        <time>2018-02-14T12:32:50.000Z</time>
      </trkpt>
      <trkpt lat="49.18074" lon="6.68078">
        <ele>181.04</ele>
        <time>2018-02-14T12:33:00.000Z</time>
      </trkpt>
      <trkpt lat="49.18092" lon="6.68073">
        <ele>180.02</ele>
        <time>2018-02-14T12:33:10.000Z</time>
      </trkpt>
      <trkpt lat="49.18108" lon="6.6807">
        <ele>175.48</ele>
        <time>2018-02-14T12:33:20.000Z</time>
      </trkpt>
      <trkpt lat="49.18116" lon="6.68071">
        <ele>168.78</ele>
        <time>2018-02-14T12:33:32.000Z</time>
      </trkpt>
      <trkpt lat="49.18124" lon="6.6808">
        <ele>161.4</ele>
        <time>2018-02-14T12:33:42.000Z</time>
      </trkpt>
      <trkpt lat="49.18135" lon="6.68095">
        <ele>155.88</ele>
        <time>2018-02-14T12:33:52.000Z</time>
      </trkpt>
      <trkpt lat="49.18151" lon="6.68103">
        <ele>162.77</ele>
        <time>2018-02-14T12:34:02.000Z</time>
      </trkpt>
      <trkpt lat="49.18162" lon="6.6811">
        <ele>166.81</ele>
        <time>2018-02-14T12:34:12.000Z</time>
      </trkpt>
      <trkpt lat="49.18168" lon="6.6812">
        <ele>169.02</ele>
        <time>2018-02-14T12:34:22.000Z</time>
      </trkpt>
      <trkpt lat="49.18179" lon="6.68134">
        <ele>166.72</ele>
        <time>2018-02-14T12:34:32.000Z</time>
      </trkpt>
      <trkpt lat="49.18185" lon="6.68144">
        <ele>164.46</ele>
        <time>2018-02-14T12:34:42.000Z</time>
      </trkpt>
      <trkpt lat="49.18193" lon="6.68155">
        <ele>163.57</ele>
        <time>2018-02-14T12:34:52.000Z</time>
      </trkpt>
      <trkpt lat="49.18204" lon="6.68166">
        <ele>166.17</ele>
        <time>2018-02-14T12:35:02.000Z</time>
      </trkpt>
      <trkpt lat="49.18217" lon="6.68178">
        <ele>171.26</ele>
        <time>2018-02-14T12:35:12.000Z</time>
      </trkpt>
      <trkpt lat="49.1823" lon="6.68188">
        <ele>177.25</ele>
        <time>2018-02-14T12:35:22.000Z</time>
      </trkpt>
      <trkpt lat="49.18238" lon="6.68195">
        <ele>179.04</ele>
        <time>2018-02-14T12:35:32.000Z</time>
      </trkpt>
      <trkpt lat="49.18249" lon="6.68201">
        <ele>179.58</ele>
        <time>2018-02-14T12:35:42.000Z</time>
      </trkpt>
      <trkpt lat="49.18262" lon="6.6821">
        <ele>181.42</ele>
        <time>2018-02-14T12:35:52.000Z</time>
      </trkpt>
      <trkpt lat="49.18274" lon="6.68222">
        <ele>179.59</ele>
        <time>2018-02-14T12:36:02.000Z</time>
      </trkpt>
      <trkpt lat="49.18286" lon="6.68227">
        <ele>177.21</ele>
        <time>2018-02-14T12:36:12.000Z</time>
      </trkpt>
      <trkpt lat="49.18299" lon="6.68238">
        <ele>175.98</ele>
        <time>2018-02-14T12:36:22.000Z</time>
      </trkpt>
      <trkpt lat="49.18303" lon="6.68243">
        <ele>173.96</ele>
        <time>2018-02-14T12:36:34.000Z</time>
      </trkpt>
      <trkpt lat="49.18306" lon="6.68247">
        <ele>169.31</ele>
        <time>2018-02-14T12:36:44.000Z</time>
      </trkpt>
      <trkpt lat="49.18309" lon="6.68256">
        <ele>165.31</ele>
        <time>2018-02-14T12:36:54.000Z</time>
      </trkpt>
      <trkpt lat="49.1831" lon="6.68259">
        <ele>163.41</ele>
        <time>2018-02-14T12:37:04.000Z</time>
      </trkpt>
      <trkpt lat="49.18325" lon="6.68269">
        <ele>160.74</ele>
        <time>2018-02-14T12:37:14.000Z</time>
      </trkpt>
      <trkpt lat="49.18342" lon="6.68277">
        <ele>164.56</ele>
        <time>2018-02-14T12:37:24.000Z</time>
      </trkpt>
      <trkpt lat="49.18355" lon="6.6828">
        <ele>164.53</ele>
        <time>2018-02-14T12:37:34.000Z</time>
      </trkpt>
      <trkpt lat="49.1836" lon="6.68284">
        <ele>163.29</ele>
        <time>2018-02-14T12:37:44.000Z</time>
      </trkpt>
      <trkpt lat="49.18391" lon="6.68293">
        <ele>172.29</ele>
        <time>2018-02-14T12:37:54.000Z</time>
      </trkpt>
      <trkpt lat="49.18397" lon="6.68299">
        <ele>174.11</ele>
        <time>2018-02-14T12:38:04.000Z</time>
      </trkpt>
      <trkpt lat="49.18399" lon="6.683">
        <ele>179.25</ele>
        <time>2018-02-14T12:38:14.000Z</time>
      </trkpt>
      <trkpt lat="49.18405" lon="6.68296">
        <ele>180.12</ele>
        <time>2018-02-14T12:38:24.000Z</time>
      </trkpt>
      <trkpt lat="49.18412" lon="6.68291">
        <ele>177.63</ele>
        <time>2018-02-14T12:38:35.000Z</time>
      </trkpt>
      <trkpt lat="49.18419" lon="6.6829">
        <ele>178.41</ele>
        <time>2018-02-14T12:38:45.000Z</time>
      </trkpt>
      <trkpt lat="49.1843" lon="6.68285">
        <ele>183.19</ele>
        <time>2018-02-14T12:38:55.000Z</time>
      </trkpt>
      <trkpt lat="49.18446" lon="6.68277">
        <ele>183.09</ele>
        <time>2018-02-14T12:39:05.000Z</time>
      </trkpt>
      <trkpt lat="49.18457" lon="6.68274">
        <ele>183.31</ele>
        <time>2018-02-14T12:39:15.000Z</time>
      </trkpt>
      <trkpt lat="49.1847" lon="6.68268">
        <ele>176.96</ele>
        <time>2018-02-14T12:39:25.000Z</time>
      </trkpt>
      <trkpt lat="49.18486" lon="6.68259">
        <ele>173.62</ele>
        <time>2018-02-14T12:39:35.000Z</time>
      </trkpt>
      <trkpt lat="49.18527" lon="6.68251">
        <ele>182.76</ele>
        <time>2018-02-14T12:39:45.000Z</time>
      </trkpt>
      <trkpt lat="49.18534" lon="6.68246">
        <ele>184.99</ele>
        <time>2018-02-14T12:39:55.000Z</time>
      </trkpt>
      <trkpt lat="49.18538" lon="6.68243">
        <ele>185.66</ele>
        <time>2018-02-14T12:40:17.000Z</time>
      </trkpt>
      <trkpt lat="49.18546" lon="6.68236">
        <ele>184.33</ele>
        <time>2018-02-14T12:40:29.000Z</time>
      </trkpt>
      <trkpt lat="49.18553" lon="6.68231">
        <ele>186.4</ele>
        <time>2018-02-14T12:40:39.000Z</time>
      </trkpt>
      <trkpt lat="49.18562" lon="6.68228">
        <ele>186.71</ele>
        <time>2018-02-14T12:40:49.000Z</time>
      </trkpt>
      <trkpt lat="49.18581" lon="6.68212">
        <ele>182.63</ele>
        <time>2018-02-14T12:40:59.000Z</time>
      </trkpt>
      <trkpt lat="49.18616" lon="6.68195">
        <ele>178.14</ele>
        <time>2018-02-14T12:41:09.000Z</time>
      </trkpt>
      <trkpt lat="49.18629" lon="6.68185">
        <ele>180.89</ele>
        <time>2018-02-14T12:41:19.000Z</time>
      </trkpt>
      <trkpt lat="49.18643" lon="6.68173">
        <ele>176.51</ele>
        <time>2018-02-14T12:41:29.000Z</time>
      </trkpt>
      <trkpt lat="49.18659" lon="6.68144">
        <ele>173.77</ele>
        <time>2018-02-14T12:41:39.000Z</time>
      </trkpt>
      <trkpt lat="49.1867" lon="6.68123">
        <ele>176.41</ele>
        <time>2018-02-14T12:41:49.000Z</time>
      </trkpt>
      <trkpt lat="49.18675" lon="6.6812">
        <ele>177.01</ele>
        <time>2018-02-14T12:42:03.000Z</time>
      </trkpt>
      <trkpt lat="49.18676" lon="6.68112">
        <ele>177.04</ele>
        <time>2018-02-14T12:42:13.000Z</time>
      </trkpt>
      <trkpt lat="49.18673" lon="6.68102">
        <ele>172.69</ele>
        <time>2018-02-14T12:42:23.000Z</time>
      </trkpt>
      <trkpt lat="49.18671" lon="6.68089">
        <ele>163.47</ele>
        <time>2018-02-14T12:42:33.000Z</time>
      </trkpt>
      <trkpt lat="49.18671" lon="6.68079">
        <ele>159.01</ele>
        <time>2018-02-14T12:42:43.000Z</time>
      </trkpt>
      <trkpt lat="49.18672" lon="6.68055">
        <ele>174.54</ele>
        <time>2018-02-14T12:42:53.000Z</time>
      </trkpt>
      <trkpt lat="49.18678" lon="6.6805">
        <ele>177.11</ele>
        <time>2018-02-14T12:43:03.000Z</time>
      </trkpt>
      <trkpt lat="49.18695" lon="6.68034">
        <ele>178.62</ele>
        <time>2018-02-14T12:43:13.000Z</time>
      </trkpt>
      <trkpt lat="49.1871" lon="6.68022">
        <ele>177.11</ele>
        <time>2018-02-14T12:43:23.000Z</time>
      </trkpt>
      <trkpt lat="49.18718" lon="6.6801">
        <ele>176.31</ele>
        <time>2018-02-14T12:43:33.000Z</time>
      </trkpt>
      <trkpt lat="49.18731" lon="6.67993">
        <ele>173.72</ele>
        <time>2018-02-14T12:43:43.000Z</time>
      </trkpt>
      <trkpt lat="49.18745" lon="6.67979">
        <ele>172.1</ele>
        <time>2018-02-14T12:43:53.000Z</time>
      </trkpt>
      <trkpt lat="49.18755" lon="6.67965">
        <ele>170.59</ele>
        <time>2018-02-14T12:44:03.000Z</time>
      </trkpt>
      <trkpt lat="49.18761" lon="6.67951">
        <ele>171.6</ele>
        <time>2018-02-14T12:44:13.000Z</time>
      </trkpt>
      <trkpt lat="49.1877" lon="6.67938">
        <ele>170.52</ele>
        <time>2018-02-14T12:44:23.000Z</time>
      </trkpt>
      <trkpt lat="49.18776" lon="6.67925">
        <ele>169.76</ele>
        <time>2018-02-14T12:44:33.000Z</time>
      </trkpt>
      <trkpt lat="49.1879" lon="6.67914">
        <ele>171.85</ele>
        <time>2018-02-14T12:44:43.000Z</time>
      </trkpt>
      <trkpt lat="49.188" lon="6.67904">
        <ele>173.13</ele>
        <time>2018-02-14T12:44:53.000Z</time>
      </trkpt>
      <trkpt lat="49.18811" lon="6.6789">
        <ele>173.57</ele>
        <time>2018-02-14T12:45:03.000Z</time>
      </trkpt>
      <trkpt lat="49.18824" lon="6.67877">
        <ele>172.35</ele>
        <time>2018-02-14T12:45:13.000Z</time>
      </trkpt>
      <trkpt lat="49.18833" lon="6.67863">
        <ele>174.28</ele>
        <time>2018-02-14T12:45:23.000Z</time>
      </trkpt>
      <trkpt lat="49.18835" lon="6.67851">
        <ele>171.83</ele>
        <time>2018-02-14T12:45:33.000Z</time>
      </trkpt>
      <trkpt lat="49.18844" lon="6.67831">
        <ele>167.42</ele>
        <time>2018-02-14T12:45:43.000Z</time>
      </trkpt>
      <trkpt lat="49.1885" lon="6.67816">
        <ele>168.65</ele>
        <time>2018-02-14T12:45:53.000Z</time>
      </trkpt>
      <trkpt lat="49.18871" lon="6.67799">
        <ele>160.12</ele>
        <time>2018-02-14T12:46:03.000Z</time>
      </trkpt>
      <trkpt lat="49.18885" lon="6.67784">
        <ele>154.86</ele>
        <time>2018-02-14T12:46:13.000Z</time>
      </trkpt>
      <trkpt lat="49.18896" lon="6.67771">
        <ele>153.52</ele>
        <time>2018-02-14T12:46:23.000Z</time>
      </trkpt>
      <trkpt lat="49.18903" lon="6.6777">
        <ele>157.71</ele>
        <time>2018-02-14T12:46:33.000Z</time>
      </trkpt>
      <trkpt lat="49.18905" lon="6.67775">
        <ele>162.41</ele>
        <time>2018-02-14T12:46:43.000Z</time>
      </trkpt>
      <trkpt lat="49.18914" lon="6.67778">
        <ele>168.72</ele>
        <time>2018-02-14T12:46:55.000Z</time>
      </trkpt>
      <trkpt lat="49.18924" lon="6.6778">
        <ele>171.05</ele>
        <time>2018-02-14T12:47:05.000Z</time>
      </trkpt>
      <trkpt lat="49.18925" lon="6.67781">
        <ele>170.02</ele>
        <time>2018-02-14T12:47:15.000Z</time>
      </trkpt>
      <trkpt lat="49.18941" lon="6.67787">
        <ele>167.83</ele>
        <time>2018-02-14T12:47:25.000Z</time>
      </trkpt>
      <trkpt lat="49.18955" lon="6.67793">
        <ele>167.31</ele>
        <time>2018-02-14T12:47:35.000Z</time>
      </trkpt>
      <trkpt lat="49.18966" lon="6.678">
        <ele>170.87</ele>
        <time>2018-02-14T12:47:45.000Z</time>
      </trkpt>
      <trkpt lat="49.18978" lon="6.67802">
        <ele>171.11</ele>
        <time>2018-02-14T12:47:55.000Z</time>
      </trkpt>
      <trkpt lat="49.18989" lon="6.6781">
        <ele>171.07</ele>
        <time>2018-02-14T12:48:05.000Z</time>
      </trkpt>
      <trkpt lat="49.19004" lon="6.67814">
        <ele>167.08</ele>
        <time>2018-02-14T12:48:15.000Z</time>
      </trkpt>
      <trkpt lat="49.19027" lon="6.6782">
        <ele>169.29</ele>
        <time>2018-02-14T12:48:25.000Z</time>
      </trkpt>
      <trkpt lat="49.19041" lon="6.67825">
        <ele>167.55</ele>
        <time>2018-02-14T12:48:35.000Z</time>
      </trkpt>
      <trkpt lat="49.19057" lon="6.67828">
        <ele>167.17</ele>
        <time>2018-02-14T12:48:45.000Z</time>
      </trkpt>
      <trkpt lat="49.19069" lon="6.67832">
        <ele>166.53</ele>
        <time>2018-02-14T12:48:55.000Z</time>
      </trkpt>
      <trkpt lat="49.19076" lon="6.67842">
        <ele>170.52</ele>
        <time>2018-02-14T12:49:05.000Z</time>
      </trkpt>
      <trkpt lat="49.19088" lon="6.67849">
        <ele>174.73</ele>
        <time>2018-02-14T12:49:15.000Z</time>
      </trkpt>
      <trkpt lat="49.19106" lon="6.67851">
        <ele>175.54</ele>
        <time>2018-02-14T12:49:25.000Z</time>
      </trkpt>
      <trkpt lat="49.19124" lon="6.67857">
        <ele>176.76</ele>
        <time>2018-02-14T12:49:35.000Z</time>
      </trkpt>
      <trkpt lat="49.19138" lon="6.67864">
        <ele>168.81</ele>
        <time>2018-02-14T12:49:45.000Z</time>
      </trkpt>
      <trkpt lat="49.19141" lon="6.67876">
        <ele>163.14</ele>
        <time>2018-02-14T12:49:55.000Z</time>
      </trkpt>
      <trkpt lat="49.19147" lon="6.67891">
        <ele>160.91</ele>
        <time>2018-02-14T12:50:05.000Z</time>
      </trkpt>
      <trkpt lat="49.19164" lon="6.67906">
        <ele>164.05</ele>
        <time>2018-02-14T12:50:15.000Z</time>
      </trkpt>
      <trkpt lat="49.19186" lon="6.67925">
        <ele>169.74</ele>
        <time>2018-02-14T12:50:25.000Z</time>
      </trkpt>
      <trkpt lat="49.19191" lon="6.6794">
        <ele>168.38</ele>
        <time>2018-02-14T12:50:35.000Z</time>
      </trkpt>
      <trkpt lat="49.19209" lon="6.67944">
        <ele>166.69</ele>
        <time>2018-02-14T12:50:45.000Z</time>
      </trkpt>
      <trkpt lat="49.19218" lon="6.67937">
        <ele>163.75</ele>
        <time>2018-02-14T12:50:55.000Z</time>
      </trkpt>
      <trkpt lat="49.19227" lon="6.67924">
        <ele>161.74</ele>
        <time>2018-02-14T12:51:05.000Z</time>
      </trkpt>
      <trkpt lat="49.19236" lon="6.67909">
        <ele>161.29</ele>
        <time>2018-02-14T12:51:15.000Z</time>
      </trkpt>
      <trkpt lat="49.19245" lon="6.67895">
        <ele>158.82</ele>
        <time>2018-02-14T12:51:25.000Z</time>
      </trkpt>
      <trkpt lat="49.19252" lon="6.67873">
        <ele>164.7</ele>
        <time>2018-02-14T12:51:35.000Z</time>
      </trkpt>
      <trkpt lat="49.19255" lon="6.67854">
        <ele>170.6</ele>
        <time>2018-02-14T12:51:45.000Z</time>
      </trkpt>
      <trkpt lat="49.19262" lon="6.67832">
        <ele>175.68</ele>
        <time>2018-02-14T12:51:55.000Z</time>
      </trkpt>
      <trkpt lat="49.19266" lon="6.67816">
        <ele>180.82</ele>
        <time>2018-02-14T12:52:05.000Z</time>
      </trkpt>
      <trkpt lat="49.19272" lon="6.67798">
        <ele>180.34</ele>
        <time>2018-02-14T12:52:15.000Z</time>
      </trkpt>
      <trkpt lat="49.19277" lon="6.67774">
        <ele>182.47</ele>
        <time>2018-02-14T12:52:25.000Z</time>
      </trkpt>
      <trkpt lat="49.19286" lon="6.67759">
        <ele>182.45</ele>
        <time>2018-02-14T12:52:35.000Z</time>
      </trkpt>
      <trkpt lat="49.19298" lon="6.67745">
        <ele>179.83</ele>
        <time>2018-02-14T12:52:45.000Z</time>
      </trkpt>
      <trkpt lat="49.19306" lon="6.6773">
        <ele>174.47</ele>
        <time>2018-02-14T12:52:55.000Z</time>
      </trkpt>
      <trkpt lat="49.19307" lon="6.67712">
        <ele>173.44</ele>
        <time>2018-02-14T12:53:05.000Z</time>
      </trkpt>
      <trkpt lat="49.19304" lon="6.67699">
        <ele>177.11</ele>
        <time>2018-02-14T12:53:15.000Z</time>
      </trkpt>
      <trkpt lat="49.19306" lon="6.67694">
        <ele>175.83</ele>
        <time>2018-02-14T12:53:25.000Z</time>
      </trkpt>
      <trkpt lat="49.19305" lon="6.67692">
        <ele>175.35</ele>
        <time>2018-02-14T12:53:35.000Z</time>
      </trkpt>
      <trkpt lat="49.19301" lon="6.67692">
        <ele>177.92</ele>
        <time>2018-02-14T12:53:45.000Z</time>
      </trkpt>
      <trkpt lat="49.19292" lon="6.67688">
        <ele>196.37</ele>
        <time>2018-02-14T12:54:55.000Z</time>
      </trkpt>
      <trkpt lat="49.19292" lon="6.67686">
        <ele>200.52</ele>
        <time>2018-02-14T12:55:05.000Z</time>
      </trkpt>
      <trkpt lat="49.19298" lon="6.67681">
        <ele>195.42</ele>
        <time>2018-02-14T12:55:17.000Z</time>
      </trkpt>
      <trkpt lat="49.19303" lon="6.67682">
        <ele>189.35</ele>
        <time>2018-02-14T12:55:27.000Z</time>
      </trkpt>
      <trkpt lat="49.19312" lon="6.67682">
        <ele>185.69</ele>
        <time>2018-02-14T12:55:38.000Z</time>
      </trkpt>
      <trkpt lat="49.19311" lon="6.67685">
        <ele>196.82</ele>
        <time>2018-02-14T12:56:36.000Z</time>
      </trkpt>
      <trkpt lat="49.19312" lon="6.67687">
        <ele>203.52</ele>
        <time>2018-02-14T12:56:46.000Z</time>
      </trkpt>
      <trkpt lat="49.19316" lon="6.67675">
        <ele>181.16</ele>
        <time>2018-02-14T12:56:56.000Z</time>
      </trkpt>
      <trkpt lat="49.19309" lon="6.67672">
        <ele>182.52</ele>
        <time>2018-02-14T12:58:10.000Z</time>
      </trkpt>
      <trkpt lat="49.19316" lon="6.67674">
        <ele>180.74</ele>
        <time>2018-02-14T12:58:20.000Z</time>
      </trkpt>
      <trkpt lat="49.19324" lon="6.67675">
        <ele>175.31</ele>
        <time>2018-02-14T12:58:30.000Z</time>
      </trkpt>
      <trkpt lat="49.19329" lon="6.67674">
        <ele>177.56</ele>
        <time>2018-02-14T12:58:40.000Z</time>
      </trkpt>
      <trkpt lat="49.19333" lon="6.67661">
        <ele>181.52</ele>
        <time>2018-02-14T12:58:50.000Z</time>
      </trkpt>
      <trkpt lat="49.19339" lon="6.67647">
        <ele>180.33</ele>
        <time>2018-02-14T12:59:00.000Z</time>
      </trkpt>
      <trkpt lat="49.19343" lon="6.67633">
        <ele>179.17</ele>
        <time>2018-02-14T12:59:10.000Z</time>
      </trkpt>
      <trkpt lat="49.19347" lon="6.67617">
        <ele>178.72</ele>
        <time>2018-02-14T12:59:20.000Z</time>
      </trkpt>
      <trkpt lat="49.19352" lon="6.67597">
        <ele>176.66</ele>
        <time>2018-02-14T12:59:30.000Z</time>
      </trkpt>
      <trkpt lat="49.19355" lon="6.67579">
        <ele>174</ele>
        <time>2018-02-14T12:59:40.000Z</time>
      </trkpt>
      <trkpt lat="49.19356" lon="6.67558">
        <ele>174.32</ele>
        <time>2018-02-14T12:59:50.000Z</time>
      </trkpt>
      <trkpt lat="49.1936" lon="6.6754">
        <ele>175.87</ele>
        <time>2018-02-14T13:00:00.000Z</time>
      </trkpt>
      <trkpt lat="49.19371" lon="6.67528">
        <ele>172.99</ele>
        <time>2018-02-14T13:00:10.000Z</time>
      </trkpt>
      <trkpt lat="49.19382" lon="6.67519">
        <ele>171.59</ele>
        <time>2018-02-14T13:00:20.000Z</time>
      </trkpt>
      <trkpt lat="49.19386" lon="6.67506">
        <ele>180.84</ele>
        <time>2018-02-14T13:00:30.000Z</time>
      </trkpt>
      <trkpt lat="49.19391" lon="6.67491">
        <ele>184.52</ele>
        <time>2018-02-14T13:00:40.000Z</time>
      </trkpt>
      <trkpt lat="49.19395" lon="6.67481">
        <ele>186.54</ele>
        <time>2018-02-14T13:00:50.000Z</time>
      </trkpt>
      <trkpt lat="49.19401" lon="6.67469">
        <ele>183.65</ele>
        <time>2018-02-14T13:01:00.000Z</time>
      </trkpt>
      <trkpt lat="49.19407" lon="6.67453">
        <ele>183.88</ele>
        <time>2018-02-14T13:01:10.000Z</time>
      </trkpt>
      <trkpt lat="49.19414" lon="6.67428">
        <ele>187.53</ele>
        <time>2018-02-14T13:01:20.000Z</time>
      </trkpt>
      <trkpt lat="49.19421" lon="6.67408">
        <ele>190.57</ele>
        <time>2018-02-14T13:01:30.000Z</time>
      </trkpt>
      <trkpt lat="49.19426" lon="6.67392">
        <ele>191.14</ele>
        <time>2018-02-14T13:01:40.000Z</time>
      </trkpt>
      <trkpt lat="49.19435" lon="6.67377">
        <ele>190.23</ele>
        <time>2018-02-14T13:01:50.000Z</time>
      </trkpt>
      <trkpt lat="49.19444" lon="6.67361">
        <ele>188.64</ele>
        <time>2018-02-14T13:02:00.000Z</time>
      </trkpt>
      <trkpt lat="49.19452" lon="6.67345">
        <ele>187.65</ele>
        <time>2018-02-14T13:02:10.000Z</time>
      </trkpt>
      <trkpt lat="49.19458" lon="6.67328">
        <ele>187.91</ele>
        <time>2018-02-14T13:02:20.000Z</time>
      </trkpt>
      <trkpt lat="49.19465" lon="6.67314">
        <ele>187.17</ele>
        <time>2018-02-14T13:02:30.000Z</time>
      </trkpt>
      <trkpt lat="49.19474" lon="6.67297">
        <ele>184.51</ele>
        <time>2018-02-14T13:02:40.000Z</time>
      </trkpt>
      <trkpt lat="49.19479" lon="6.67283">
        <ele>181.87</ele>
        <time>2018-02-14T13:02:50.000Z</time>
      </trkpt>
      <trkpt lat="49.19487" lon="6.67266">
        <ele>179.11</ele>
        <time>2018-02-14T13:03:00.000Z</time>
      </trkpt>
      <trkpt lat="49.19493" lon="6.67253">
        <ele>178.02</ele>
        <time>2018-02-14T13:03:10.000Z</time>
      </trkpt>
      <trkpt lat="49.19495" lon="6.67243">
        <ele>177.22</ele>
        <time>2018-02-14T13:03:20.000Z</time>
      </trkpt>
      <trkpt lat="49.19503" lon="6.67225">
        <ele>179.06</ele>
        <time>2018-02-14T13:03:30.000Z</time>
      </trkpt>
      <trkpt lat="49.19509" lon="6.67204">
        <ele>185.54</ele>
        <time>2018-02-14T13:03:40.000Z</time>
      </trkpt>
      <trkpt lat="49.19518" lon="6.67191">
        <ele>185.05</ele>
        <time>2018-02-14T13:03:50.000Z</time>
      </trkpt>
      <trkpt lat="49.19521" lon="6.6718">
        <ele>184.04</ele>
        <time>2018-02-14T13:04:00.000Z</time>
      </trkpt>
      <trkpt lat="49.19527" lon="6.67168">
        <ele>182.5</ele>
        <time>2018-02-14T13:04:10.000Z</time>
      </trkpt>
      <trkpt lat="49.19538" lon="6.67152">
        <ele>182.62</ele>
        <time>2018-02-14T13:04:20.000Z</time>
      </trkpt>
      <trkpt lat="49.19548" lon="6.67134">
        <ele>186.73</ele>
        <time>2018-02-14T13:04:30.000Z</time>
      </trkpt>
      <trkpt lat="49.19556" lon="6.67121">
        <ele>188.09</ele>
        <time>2018-02-14T13:04:40.000Z</time>
      </trkpt>
      <trkpt lat="49.19559" lon="6.67108">
        <ele>188.18</ele>
        <time>2018-02-14T13:04:50.000Z</time>
      </trkpt>
      <trkpt lat="49.19564" lon="6.671">
        <ele>186.85</ele>
        <time>2018-02-14T13:05:00.000Z</time>
      </trkpt>
      <trkpt lat="49.1957" lon="6.67082">
        <ele>189.39</ele>
        <time>2018-02-14T13:05:10.000Z</time>
      </trkpt>
      <trkpt lat="49.19574" lon="6.67068">
        <ele>190.78</ele>
        <time>2018-02-14T13:05:20.000Z</time>
      </trkpt>
      <trkpt lat="49.19581" lon="6.67063">
        <ele>188.25</ele>
        <time>2018-02-14T13:05:30.000Z</time>
      </trkpt>
      <trkpt lat="49.19587" lon="6.6706">
        <ele>186.83</ele>
        <time>2018-02-14T13:05:40.000Z</time>
      </trkpt>
      <trkpt lat="49.19606" lon="6.67042">
        <ele>183.11</ele>
        <time>2018-02-14T13:05:50.000Z</time>
      </trkpt>
      <trkpt lat="49.19629" lon="6.67014">
        <ele>198.46</ele>
        <time>2018-02-14T13:06:00.000Z</time>
      </trkpt>
      <trkpt lat="49.19633" lon="6.67003">
        <ele>201.49</ele>
        <time>2018-02-14T13:06:10.000Z</time>
      </trkpt>
      <trkpt lat="49.19649" lon="6.66991">
        <ele>200.17</ele>
        <time>2018-02-14T13:06:20.000Z</time>
      </trkpt>
      <trkpt lat="49.19659" lon="6.66982">
        <ele>198.8</ele>
        <time>2018-02-14T13:06:30.000Z</time>
      </trkpt>
      <trkpt lat="49.19668" lon="6.66971">
        <ele>200.56</ele>
        <time>2018-02-14T13:06:40.000Z</time>
      </trkpt>
      <trkpt lat="49.19674" lon="6.66963">
        <ele>204.03</ele>
        <time>2018-02-14T13:06:50.000Z</time>
      </trkpt>
      <trkpt lat="49.19684" lon="6.66955">
        <ele>202.13</ele>
        <time>2018-02-14T13:07:00.000Z</time>
      </trkpt>
      <trkpt lat="49.19699" lon="6.66942">
        <ele>204.69</ele>
        <time>2018-02-14T13:07:10.000Z</time>
      </trkpt>
      <trkpt lat="49.19707" lon="6.66936">
        <ele>203.95</ele>
        <time>2018-02-14T13:07:20.000Z</time>
      </trkpt>
      <trkpt lat="49.19716" lon="6.66929">
        <ele>200.63</ele>
        <time>2018-02-14T13:07:33.000Z</time>
      </trkpt>
      <trkpt lat="49.1972" lon="6.66922">
        <ele>201.24</ele>
        <time>2018-02-14T13:07:43.000Z</time>
      </trkpt>
      <trkpt lat="49.19731" lon="6.66912">
        <ele>200.42</ele>
        <time>2018-02-14T13:07:53.000Z</time>
      </trkpt>
      <trkpt lat="49.19746" lon="6.66903">
        <ele>190.61</ele>
        <time>2018-02-14T13:08:03.000Z</time>
      </trkpt>
      <trkpt lat="49.19764" lon="6.66885">
        <ele>195.14</ele>
        <time>2018-02-14T13:08:13.000Z</time>
      </trkpt>
      <trkpt lat="49.19763" lon="6.66879">
        <ele>204.23</ele>
        <time>2018-02-14T13:08:23.000Z</time>
      </trkpt>
      <trkpt lat="49.19771" lon="6.66865">
        <ele>211.03</ele>
        <time>2018-02-14T13:08:33.000Z</time>
      </trkpt>
      <trkpt lat="49.19786" lon="6.6685">
        <ele>197.34</ele>
        <time>2018-02-14T13:08:43.000Z</time>
      </trkpt>
      <trkpt lat="49.19789" lon="6.6684">
        <ele>194.93</ele>
        <time>2018-02-14T13:08:53.000Z</time>
      </trkpt>
      <trkpt lat="49.19809" lon="6.66822">
        <ele>193.24</ele>
        <time>2018-02-14T13:09:03.000Z</time>
      </trkpt>
      <trkpt lat="49.19818" lon="6.66808">
        <ele>199.73</ele>
        <time>2018-02-14T13:09:13.000Z</time>
      </trkpt>
      <trkpt lat="49.19824" lon="6.66789">
        <ele>205.73</ele>
        <time>2018-02-14T13:09:23.000Z</time>
      </trkpt>
      <trkpt lat="49.19832" lon="6.66778">
        <ele>208.61</ele>
        <time>2018-02-14T13:09:33.000Z</time>
      </trkpt>
      <trkpt lat="49.19833" lon="6.66776">
        <ele>209.13</ele>
        <time>2018-02-14T13:09:43.000Z</time>
      </trkpt>
      <trkpt lat="49.19847" lon="6.6676">
        <ele>207.03</ele>
        <time>2018-02-14T13:09:53.000Z</time>
      </trkpt>
      <trkpt lat="49.19851" lon="6.66755">
        <ele>210.24</ele>
        <time>2018-02-14T13:10:03.000Z</time>
      </trkpt>
      <trkpt lat="49.1986" lon="6.66749">
        <ele>211.3</ele>
        <time>2018-02-14T13:10:13.000Z</time>
      </trkpt>
      <trkpt lat="49.19876" lon="6.66743">
        <ele>210.93</ele>
        <time>2018-02-14T13:10:23.000Z</time>
      </trkpt>
      <trkpt lat="49.19892" lon="6.66726">
        <ele>204.31</ele>
        <time>2018-02-14T13:10:33.000Z</time>
      </trkpt>
      <trkpt lat="49.19897" lon="6.66721">
        <ele>205.77</ele>
        <time>2018-02-14T13:10:43.000Z</time>
      </trkpt>
      <trkpt lat="49.19914" lon="6.66713">
        <ele>197.96</ele>
        <time>2018-02-14T13:10:53.000Z</time>
      </trkpt>
      <trkpt lat="49.1993" lon="6.66701">
        <ele>195.06</ele>
        <time>2018-02-14T13:11:03.000Z</time>
      </trkpt>
      <trkpt lat="49.19935" lon="6.66691">
        <ele>195.11</ele>
        <time>2018-02-14T13:11:13.000Z</time>
      </trkpt>
      <trkpt lat="49.19938" lon="6.66676">
        <ele>198.83</ele>
        <time>2018-02-14T13:11:23.000Z</time>
      </trkpt>
      <trkpt lat="49.19963" lon="6.66651">
        <ele>187.32</ele>
        <time>2018-02-14T13:11:33.000Z</time>
      </trkpt>
      <trkpt lat="49.19964" lon="6.6664">
        <ele>189.07</ele>
        <time>2018-02-14T13:11:43.000Z</time>
      </trkpt>
      <trkpt lat="49.19965" lon="6.66629">
        <ele>190.07</ele>
        <time>2018-02-14T13:11:53.000Z</time>
      </trkpt>
      <trkpt lat="49.19964" lon="6.66617">
        <ele>187.09</ele>
        <time>2018-02-14T13:12:03.000Z</time>
      </trkpt>
      <trkpt lat="49.19958" lon="6.66603">
        <ele>182.87</ele>
        <time>2018-02-14T13:12:13.000Z</time>
      </trkpt>
      <trkpt lat="49.19956" lon="6.66585">
        <ele>182.7</ele>
        <time>2018-02-14T13:12:23.000Z</time>
      </trkpt>
      <trkpt lat="49.19954" lon="6.66567">
        <ele>181.81</ele>
        <time>2018-02-14T13:12:33.000Z</time>
      </trkpt>
      <trkpt lat="49.19956" lon="6.66549">
        <ele>180.94</ele>
        <time>2018-02-14T13:12:43.000Z</time>
      </trkpt>
      <trkpt lat="49.19961" lon="6.66534">
        <ele>180.29</ele>
        <time>2018-02-14T13:12:53.000Z</time>
      </trkpt>
      <trkpt lat="49.19963" lon="6.6652">
        <ele>177.92</ele>
        <time>2018-02-14T13:13:03.000Z</time>
      </trkpt>
      <trkpt lat="49.19964" lon="6.66502">
        <ele>177.79</ele>
        <time>2018-02-14T13:13:13.000Z</time>
      </trkpt>
      <trkpt lat="49.19974" lon="6.6648">
        <ele>184.31</ele>
        <time>2018-02-14T13:13:23.000Z</time>
      </trkpt>
      <trkpt lat="49.19982" lon="6.6646">
        <ele>181.3</ele>
        <time>2018-02-14T13:13:33.000Z</time>
      </trkpt>
      <trkpt lat="49.19978" lon="6.66439">
        <ele>181.22</ele>
        <time>2018-02-14T13:13:43.000Z</time>
      </trkpt>
      <trkpt lat="49.19985" lon="6.6642">
        <ele>182.07</ele>
        <time>2018-02-14T13:13:53.000Z</time>
      </trkpt>
      <trkpt lat="49.1998" lon="6.664">
        <ele>189.11</ele>
        <time>2018-02-14T13:14:03.000Z</time>
      </trkpt>
      <trkpt lat="49.19978" lon="6.66384">
        <ele>192.17</ele>
        <time>2018-02-14T13:14:13.000Z</time>
      </trkpt>
      <trkpt lat="49.19981" lon="6.66371">
        <ele>190.7</ele>
        <time>2018-02-14T13:14:23.000Z</time>
      </trkpt>
      <trkpt lat="49.19984" lon="6.66351">
        <ele>181.89</ele>
        <time>2018-02-14T13:14:33.000Z</time>
      </trkpt>
      <trkpt lat="49.19985" lon="6.66332">
        <ele>186.57</ele>
        <time>2018-02-14T13:14:43.000Z</time>
      </trkpt>
      <trkpt lat="49.19988" lon="6.66318">
        <ele>185.17</ele>
        <time>2018-02-14T13:14:53.000Z</time>
      </trkpt>
      <trkpt lat="49.19989" lon="6.66304">
        <ele>189.16</ele>
        <time>2018-02-14T13:15:03.000Z</time>
      </trkpt>
      <trkpt lat="49.2" lon="6.66289">
        <ele>179.54</ele>
        <time>2018-02-14T13:15:13.000Z</time>
      </trkpt>
      <trkpt lat="49.20013" lon="6.66265">
        <ele>189.94</ele>
        <time>2018-02-14T13:15:23.000Z</time>
      </trkpt>
      <trkpt lat="49.20012" lon="6.66248">
        <ele>197.49</ele>
        <time>2018-02-14T13:15:33.000Z</time>
      </trkpt>
      <trkpt lat="49.20015" lon="6.66232">
        <ele>193.59</ele>
        <time>2018-02-14T13:15:43.000Z</time>
      </trkpt>
      <trkpt lat="49.20018" lon="6.66228">
        <ele>191.14</ele>
        <time>2018-02-14T13:15:53.000Z</time>
      </trkpt>
      <trkpt lat="49.20029" lon="6.66206">
        <ele>179.78</ele>
        <time>2018-02-14T13:16:03.000Z</time>
      </trkpt>
      <trkpt lat="49.20019" lon="6.66187">
        <ele>193.74</ele>
        <time>2018-02-14T13:16:13.000Z</time>
      </trkpt>
      <trkpt lat="49.20018" lon="6.66173">
        <ele>201.44</ele>
        <time>2018-02-14T13:16:23.000Z</time>
      </trkpt>
      <trkpt lat="49.20024" lon="6.66173">
        <ele>197.73</ele>
        <time>2018-02-14T13:16:33.000Z</time>
      </trkpt>
      <trkpt lat="49.20025" lon="6.66173">
        <ele>195.84</ele>
        <time>2018-02-14T13:16:43.000Z</time>
      </trkpt>
      <trkpt lat="49.20038" lon="6.66169">
        <ele>195.14</ele>
        <time>2018-02-14T13:16:53.000Z</time>
      </trkpt>
      <trkpt lat="49.2005" lon="6.66161">
        <ele>197.59</ele>
        <time>2018-02-14T13:17:03.000Z</time>
      </trkpt>
      <trkpt lat="49.20062" lon="6.6615">
        <ele>194.24</ele>
        <time>2018-02-14T13:17:13.000Z</time>
      </trkpt>
      <trkpt lat="49.20069" lon="6.66142">
        <ele>189.25</ele>
        <time>2018-02-14T13:17:23.000Z</time>
      </trkpt>
      <trkpt lat="49.20083" lon="6.66127">
        <ele>198.24</ele>
        <time>2018-02-14T13:17:33.000Z</time>
      </trkpt>
      <trkpt lat="49.20092" lon="6.66134">
        <ele>195.88</ele>
        <time>2018-02-14T13:17:43.000Z</time>
      </trkpt>
      <trkpt lat="49.20114" lon="6.66134">
        <ele>187.07</ele>
        <time>2018-02-14T13:17:53.000Z</time>
      </trkpt>
      <trkpt lat="49.20132" lon="6.66132">
        <ele>180.86</ele>
        <time>2018-02-14T13:18:03.000Z</time>
      </trkpt>
      <trkpt lat="49.20142" lon="6.66141">
        <ele>178.47</ele>
        <time>2018-02-14T13:18:13.000Z</time>
      </trkpt>
      <trkpt lat="49.20153" lon="6.66151">
        <ele>173.66</ele>
        <time>2018-02-14T13:18:23.000Z</time>
      </trkpt>
      <trkpt lat="49.20165" lon="6.66166">
        <ele>174.88</ele>
        <time>2018-02-14T13:18:33.000Z</time>
      </trkpt>
      <trkpt lat="49.20178" lon="6.66182">
        <ele>178.66</ele>
        <time>2018-02-14T13:18:43.000Z</time>
      </trkpt>
      <trkpt lat="49.20187" lon="6.6619">
        <ele>186.4</ele>
        <time>2018-02-14T13:18:53.000Z</time>
      </trkpt>
      <trkpt lat="49.20194" lon="6.66188">
        <ele>186.44</ele>
        <time>2018-02-14T13:19:09.000Z</time>
      </trkpt>
      <trkpt lat="49.2021" lon="6.66175">
        <ele>169.88</ele>
        <time>2018-02-14T13:19:19.000Z</time>
      </trkpt>
      <trkpt lat="49.20215" lon="6.66155">
        <ele>158.59</ele>
        <time>2018-02-14T13:19:29.000Z</time>
      </trkpt>
      <trkpt lat="49.20214" lon="6.66137">
        <ele>156.65</ele>
        <time>2018-02-14T13:19:39.000Z</time>
      </trkpt>
      <trkpt lat="49.20213" lon="6.66113">
        <ele>160.53</ele>
        <time>2018-02-14T13:19:49.000Z</time>
      </trkpt>
      <trkpt lat="49.20205" lon="6.66089">
        <ele>171.36</ele>
        <time>2018-02-14T13:19:59.000Z</time>
      </trkpt>
      <trkpt lat="49.20201" lon="6.66069">
        <ele>174.98</ele>
        <time>2018-02-14T13:20:09.000Z</time>
      </trkpt>
      <trkpt lat="49.20197" lon="6.66051">
        <ele>175.96</ele>
        <time>2018-02-14T13:20:19.000Z</time>
      </trkpt>
      <trkpt lat="49.20191" lon="6.66035">
        <ele>177.21</ele>
        <time>2018-02-14T13:20:29.000Z</time>
      </trkpt>
      <trkpt lat="49.20187" lon="6.66016">
        <ele>175.19</ele>
        <time>2018-02-14T13:20:39.000Z</time>
      </trkpt>
      <trkpt lat="49.20182" lon="6.65999">
        <ele>173.29</ele>
        <time>2018-02-14T13:20:49.000Z</time>
      </trkpt>
      <trkpt lat="49.20177" lon="6.65979">
        <ele>175.59</ele>
        <time>2018-02-14T13:20:59.000Z</time>
      </trkpt>
      <trkpt lat="49.20172" lon="6.65961">
        <ele>177.15</ele>
        <time>2018-02-14T13:21:09.000Z</time>
      </trkpt>
      <trkpt lat="49.20173" lon="6.65947">
        <ele>174.04</ele>
        <time>2018-02-14T13:21:19.000Z</time>
      </trkpt>
      <trkpt lat="49.20172" lon="6.65929">
        <ele>174.73</ele>
        <time>2018-02-14T13:21:29.000Z</time>
      </trkpt>
      <trkpt lat="49.20169" lon="6.65909">
        <ele>178.49</ele>
        <time>2018-02-14T13:21:39.000Z</time>
      </trkpt>
      <trkpt lat="49.2017" lon="6.65906">
        <ele>180.35</ele>
        <time>2018-02-14T13:21:49.000Z</time>
      </trkpt>
      <trkpt lat="49.20169" lon="6.65905">
        <ele>182.55</ele>
        <time>2018-02-14T13:22:47.000Z</time>
      </trkpt>
      <trkpt lat="49.20169" lon="6.65891">
        <ele>179.27</ele>
        <time>2018-02-14T13:22:57.000Z</time>
      </trkpt>
      <trkpt lat="49.20166" lon="6.65875">
        <ele>180.43</ele>
        <time>2018-02-14T13:23:07.000Z</time>
      </trkpt>
      <trkpt lat="49.20165" lon="6.65873">
        <ele>181.15</ele>
        <time>2018-02-14T13:23:17.000Z</time>
      </trkpt>
      <trkpt lat="49.20164" lon="6.65871">
        <ele>179.72</ele>
        <time>2018-02-14T13:23:43.000Z</time>
      </trkpt>
      <trkpt lat="49.20166" lon="6.65863">
        <ele>180.84</ele>
        <time>2018-02-14T13:23:53.000Z</time>
      </trkpt>
      <trkpt lat="49.20165" lon="6.65858">
        <ele>182.45</ele>
        <time>2018-02-14T13:24:03.000Z</time>
      </trkpt>
      <trkpt lat="49.20169" lon="6.65859">
        <ele>181.8</ele>
        <time>2018-02-14T13:24:13.000Z</time>
      </trkpt>
      <trkpt lat="49.20172" lon="6.65858">
        <ele>180.8</ele>
        <time>2018-02-14T13:24:24.000Z</time>
      </trkpt>
      <trkpt lat="49.20179" lon="6.65857">
        <ele>179.42</ele>
        <time>2018-02-14T13:24:34.000Z</time>
      </trkpt>
      <trkpt lat="49.20179" lon="6.65861">
        <ele>183.27</ele>
        <time>2018-02-14T13:24:52.000Z</time>
      </trkpt>
      <trkpt lat="49.2019" lon="6.65854">
        <ele>178.22</ele>
        <time>2018-02-14T13:25:02.000Z</time>
      </trkpt>
      <trkpt lat="49.20207" lon="6.65852">
        <ele>171.92</ele>
        <time>2018-02-14T13:25:12.000Z</time>
      </trkpt>
      <trkpt lat="49.20218" lon="6.65857">
        <ele>181.33</ele>
        <time>2018-02-14T13:25:22.000Z</time>
      </trkpt>
      <trkpt lat="49.20221" lon="6.65859">
        <ele>187.85</ele>
        <time>2018-02-14T13:25:32.000Z</time>
      </trkpt>
      <trkpt lat="49.20218" lon="6.6586">
        <ele>195.2</ele>
        <time>2018-02-14T13:26:08.000Z</time>
      </trkpt>
      <trkpt lat="49.20224" lon="6.65851">
        <ele>195.82</ele>
        <time>2018-02-14T13:26:18.000Z</time>
      </trkpt>
      <trkpt lat="49.2023" lon="6.65837">
        <ele>190.85</ele>
        <time>2018-02-14T13:26:28.000Z</time>
      </trkpt>
      <trkpt lat="49.20235" lon="6.65825">
        <ele>188.69</ele>
        <time>2018-02-14T13:26:38.000Z</time>
      </trkpt>
      <trkpt lat="49.20236" lon="6.65814">
        <ele>184.18</ele>
        <time>2018-02-14T13:26:48.000Z</time>
      </trkpt>
      <trkpt lat="49.20236" lon="6.65797">
        <ele>180.83</ele>
        <time>2018-02-14T13:26:58.000Z</time>
      </trkpt>
      <trkpt lat="49.20229" lon="6.65779">
        <ele>182.78</ele>
        <time>2018-02-14T13:27:08.000Z</time>
      </trkpt>
      <trkpt lat="49.20225" lon="6.65763">
        <ele>183.82</ele>
        <time>2018-02-14T13:27:18.000Z</time>
      </trkpt>
      <trkpt lat="49.20225" lon="6.65746">
        <ele>183.53</ele>
        <time>2018-02-14T13:27:28.000Z</time>
      </trkpt>
      <trkpt lat="49.20224" lon="6.65725">
        <ele>181.7</ele>
        <time>2018-02-14T13:27:38.000Z</time>
      </trkpt>
      <trkpt lat="49.20222" lon="6.65708">
        <ele>182.51</ele>
        <time>2018-02-14T13:27:48.000Z</time>
      </trkpt>
      <trkpt lat="49.20221" lon="6.65693">
        <ele>181.21</ele>
        <time>2018-02-14T13:27:58.000Z</time>
      </trkpt>
      <trkpt lat="49.20221" lon="6.65672">
        <ele>179.49</ele>
        <time>2018-02-14T13:28:08.000Z</time>
      </trkpt>
      <trkpt lat="49.20219" lon="6.65654">
        <ele>180.6</ele>
        <time>2018-02-14T13:28:18.000Z</time>
      </trkpt>
      <trkpt lat="49.20218" lon="6.65634">
        <ele>181.69</ele>
        <time>2018-02-14T13:28:28.000Z</time>
      </trkpt>
      <trkpt lat="49.20218" lon="6.65618">
        <ele>183.74</ele>
        <time>2018-02-14T13:28:38.000Z</time>
      </trkpt>
      <trkpt lat="49.20214" lon="6.6561">
        <ele>187.43</ele>
        <time>2018-02-14T13:28:48.000Z</time>
      </trkpt>
      <trkpt lat="49.20221" lon="6.65599">
        <ele>191.98</ele>
        <time>2018-02-14T13:29:56.000Z</time>
      </trkpt>
      <trkpt lat="49.20222" lon="6.65598">
        <ele>191.65</ele>
        <time>2018-02-14T13:30:06.000Z</time>
      </trkpt>
      <trkpt lat="49.20231" lon="6.65601">
        <ele>183.4</ele>
        <time>2018-02-14T13:30:36.000Z</time>
      </trkpt>
      <trkpt lat="49.20236" lon="6.65606">
        <ele>177.55</ele>
        <time>2018-02-14T13:30:46.000Z</time>
      </trkpt>
      <trkpt lat="49.20251" lon="6.65602">
        <ele>184.54</ele>
        <time>2018-02-14T13:30:56.000Z</time>
      </trkpt>
      <trkpt lat="49.20253" lon="6.65603">
        <ele>184.65</ele>
        <time>2018-02-14T13:31:06.000Z</time>
      </trkpt>
      <trkpt lat="49.20262" lon="6.65603">
        <ele>187.5</ele>
        <time>2018-02-14T13:31:34.000Z</time>
      </trkpt>
      <trkpt lat="49.20274" lon="6.65606">
        <ele>189.95</ele>
        <time>2018-02-14T13:31:44.000Z</time>
      </trkpt>
      <trkpt lat="49.20292" lon="6.65606">
        <ele>195.25</ele>
        <time>2018-02-14T13:31:54.000Z</time>
      </trkpt>
      <trkpt lat="49.20303" lon="6.65604">
        <ele>200.83</ele>
        <time>2018-02-14T13:32:04.000Z</time>
      </trkpt>
      <trkpt lat="49.2031" lon="6.65608">
        <ele>211.07</ele>
        <time>2018-02-14T13:32:14.000Z</time>
      </trkpt>
      <trkpt lat="49.20313" lon="6.65604">
        <ele>213.15</ele>
        <time>2018-02-14T13:32:24.000Z</time>
      </trkpt>
      <trkpt lat="49.20322" lon="6.65599">
        <ele>205.98</ele>
        <time>2018-02-14T13:32:34.000Z</time>
      </trkpt>
      <trkpt lat="49.20331" lon="6.65593">
        <ele>206.35</ele>
        <time>2018-02-14T13:32:47.000Z</time>
      </trkpt>
      <trkpt lat="49.20344" lon="6.65582">
        <ele>207.16</ele>
        <time>2018-02-14T13:32:57.000Z</time>
      </trkpt>
      <trkpt lat="49.20352" lon="6.65573">
        <ele>208.42</ele>
        <time>2018-02-14T13:33:07.000Z</time>
      </trkpt>
      <trkpt lat="49.20359" lon="6.65565">
        <ele>210.63</ele>
        <time>2018-02-14T13:33:17.000Z</time>
      </trkpt>
      <trkpt lat="49.20368" lon="6.65562">
        <ele>208.69</ele>
        <time>2018-02-14T13:33:27.000Z</time>
      </trkpt>
      <trkpt lat="49.20378" lon="6.65554">
        <ele>207.28</ele>
        <time>2018-02-14T13:33:37.000Z</time>
      </trkpt>
      <trkpt lat="49.20386" lon="6.65556">
        <ele>204.49</ele>
        <time>2018-02-14T13:33:47.000Z</time>
      </trkpt>
      <trkpt lat="49.20388" lon="6.65556">
        <ele>203.35</ele>
        <time>2018-02-14T13:33:57.000Z</time>
      </trkpt>
      <trkpt lat="49.20393" lon="6.65552">
        <ele>204.38</ele>
        <time>2018-02-14T13:34:07.000Z</time>
      </trkpt>
      <trkpt lat="49.20397" lon="6.65552">
        <ele>207.35</ele>
        <time>2018-02-14T13:34:38.000Z</time>
      </trkpt>
      <trkpt lat="49.20401" lon="6.65549">
        <ele>205.27</ele>
        <time>2018-02-14T13:34:48.000Z</time>
      </trkpt>
      <trkpt lat="49.20408" lon="6.6553">
        <ele>205.17</ele>
        <time>2018-02-14T13:34:58.000Z</time>
      </trkpt>
      <trkpt lat="49.20412" lon="6.65518">
        <ele>208.85</ele>
        <time>2018-02-14T13:35:08.000Z</time>
      </trkpt>
      <trkpt lat="49.20415" lon="6.65512">
        <ele>209.9</ele>
        <time>2018-02-14T13:35:18.000Z</time>
      </trkpt>
      <trkpt lat="49.20415" lon="6.65501">
        <ele>205.31</ele>
        <time>2018-02-14T13:35:28.000Z</time>
      </trkpt>
      <trkpt lat="49.20419" lon="6.65483">
        <ele>202.74</ele>
        <time>2018-02-14T13:35:38.000Z</time>
      </trkpt>
      <trkpt lat="49.20424" lon="6.65465">
        <ele>204.24</ele>
        <time>2018-02-14T13:35:48.000Z</time>
      </trkpt>
      <trkpt lat="49.20429" lon="6.65448">
        <ele>202.44</ele>
        <time>2018-02-14T13:35:58.000Z</time>
      </trkpt>
      <trkpt lat="49.20436" lon="6.65429">
        <ele>204.07</ele>
        <time>2018-02-14T13:36:08.000Z</time>
      </trkpt>
      <trkpt lat="49.20442" lon="6.65412">
        <ele>205.76</ele>
        <time>2018-02-14T13:36:18.000Z</time>
      </trkpt>
      <trkpt lat="49.2045" lon="6.65391">
        <ele>209.71</ele>
        <time>2018-02-14T13:36:28.000Z</time>
      </trkpt>
      <trkpt lat="49.20453" lon="6.65372">
        <ele>208.86</ele>
        <time>2018-02-14T13:36:38.000Z</time>
      </trkpt>
      <trkpt lat="49.20458" lon="6.65363">
        <ele>204.28</ele>
        <time>2018-02-14T13:36:48.000Z</time>
      </trkpt>
      <trkpt lat="49.20459" lon="6.65351">
        <ele>200.82</ele>
        <time>2018-02-14T13:36:58.000Z</time>
      </trkpt>
      <trkpt lat="49.20462" lon="6.65339">
        <ele>199.18</ele>
        <time>2018-02-14T13:37:08.000Z</time>
      </trkpt>
      <trkpt lat="49.20469" lon="6.65315">
        <ele>203.23</ele>
        <time>2018-02-14T13:37:18.000Z</time>
      </trkpt>
      <trkpt lat="49.20476" lon="6.65295">
        <ele>207.57</ele>
        <time>2018-02-14T13:37:28.000Z</time>
      </trkpt>
      <trkpt lat="49.20482" lon="6.65275">
        <ele>212.17</ele>
        <time>2018-02-14T13:37:38.000Z</time>
      </trkpt>
      <trkpt lat="49.20486" lon="6.65256">
        <ele>216.7</ele>
        <time>2018-02-14T13:37:48.000Z</time>
      </trkpt>
      <trkpt lat="49.20489" lon="6.65242">
        <ele>218.44</ele>
        <time>2018-02-14T13:37:58.000Z</time>
      </trkpt>
      <trkpt lat="49.20494" lon="6.65232">
        <ele>214.34</ele>
        <time>2018-02-14T13:38:08.000Z</time>
      </trkpt>
      <trkpt lat="49.20499" lon="6.6522">
        <ele>210.52</ele>
        <time>2018-02-14T13:38:18.000Z</time>
      </trkpt>
      <trkpt lat="49.20508" lon="6.65204">
        <ele>209.2</ele>
        <time>2018-02-14T13:38:28.000Z</time>
      </trkpt>
      <trkpt lat="49.2051" lon="6.65173">
        <ele>215.71</ele>
        <time>2018-02-14T13:38:38.000Z</time>
      </trkpt>
      <trkpt lat="49.20513" lon="6.65158">
        <ele>215.85</ele>
        <time>2018-02-14T13:38:48.000Z</time>
      </trkpt>
      <trkpt lat="49.2052" lon="6.6514">
        <ele>212.18</ele>
        <time>2018-02-14T13:38:58.000Z</time>
      </trkpt>
      <trkpt lat="49.20528" lon="6.65121">
        <ele>212.79</ele>
        <time>2018-02-14T13:39:08.000Z</time>
      </trkpt>
      <trkpt lat="49.20534" lon="6.65105">
        <ele>212.87</ele>
        <time>2018-02-14T13:39:18.000Z</time>
      </trkpt>
      <trkpt lat="49.20541" lon="6.6509">
        <ele>213.22</ele>
        <time>2018-02-14T13:39:28.000Z</time>
      </trkpt>
      <trkpt lat="49.20545" lon="6.65073">
        <ele>213.8</ele>
        <time>2018-02-14T13:39:38.000Z</time>
      </trkpt>
      <trkpt lat="49.20551" lon="6.65055">
        <ele>216.88</ele>
        <time>2018-02-14T13:39:48.000Z</time>
      </trkpt>
      <trkpt lat="49.20553" lon="6.65036">
        <ele>217.76</ele>
        <time>2018-02-14T13:39:58.000Z</time>
      </trkpt>
      <trkpt lat="49.20556" lon="6.65018">
        <ele>218.03</ele>
        <time>2018-02-14T13:40:08.000Z</time>
      </trkpt>
      <trkpt lat="49.20559" lon="6.65001">
        <ele>214.13</ele>
        <time>2018-02-14T13:40:18.000Z</time>
      </trkpt>
      <trkpt lat="49.20561" lon="6.64985">
        <ele>213.18</ele>
        <time>2018-02-14T13:40:28.000Z</time>
      </trkpt>
      <trkpt lat="49.20566" lon="6.64964">
        <ele>215.5</ele>
        <time>2018-02-14T13:40:38.000Z</time>
      </trkpt>
      <trkpt lat="49.20569" lon="6.64945">
        <ele>214.54</ele>
        <time>2018-02-14T13:40:48.000Z</time>
      </trkpt>
      <trkpt lat="49.20572" lon="6.64929">
        <ele>216.15</ele>
        <time>2018-02-14T13:40:58.000Z</time>
      </trkpt>
      <trkpt lat="49.20574" lon="6.64913">
        <ele>217.63</ele>
        <time>2018-02-14T13:41:08.000Z</time>
      </trkpt>
      <trkpt lat="49.20577" lon="6.64896">
        <ele>218.49</ele>
        <time>2018-02-14T13:41:18.000Z</time>
      </trkpt>
      <trkpt lat="49.20579" lon="6.64884">
        <ele>217.64</ele>
        <time>2018-02-14T13:41:28.000Z</time>
      </trkpt>
      <trkpt lat="49.20581" lon="6.64865">
        <ele>219.22</ele>
        <time>2018-02-14T13:41:38.000Z</time>
      </trkpt>
      <trkpt lat="49.20584" lon="6.64849">
        <ele>220.41</ele>
        <time>2018-02-14T13:41:48.000Z</time>
      </trkpt>
      <trkpt lat="49.20585" lon="6.64842">
        <ele>222.66</ele>
        <time>2018-02-14T13:41:58.000Z</time>
      </trkpt>
      <trkpt lat="49.20591" lon="6.64834">
        <ele>221.75</ele>
        <time>2018-02-14T13:42:08.000Z</time>
      </trkpt>
      <trkpt lat="49.20599" lon="6.64827">
        <ele>221.12</ele>
        <time>2018-02-14T13:42:18.000Z</time>
      </trkpt>
      <trkpt lat="49.2061" lon="6.6482">
        <ele>219.63</ele>
        <time>2018-02-14T13:42:28.000Z</time>
      </trkpt>
      <trkpt lat="49.20622" lon="6.64812">
        <ele>222</ele>
        <time>2018-02-14T13:42:38.000Z</time>
      </trkpt>
      <trkpt lat="49.20634" lon="6.64805">
        <ele>224.25</ele>
        <time>2018-02-14T13:42:48.000Z</time>
      </trkpt>
      <trkpt lat="49.20645" lon="6.64794">
        <ele>223.17</ele>
        <time>2018-02-14T13:42:58.000Z</time>
      </trkpt>
      <trkpt lat="49.20655" lon="6.64784">
        <ele>222.88</ele>
        <time>2018-02-14T13:43:08.000Z</time>
      </trkpt>
      <trkpt lat="49.20664" lon="6.64773">
        <ele>221.22</ele>
        <time>2018-02-14T13:43:18.000Z</time>
      </trkpt>
      <trkpt lat="49.20674" lon="6.64764">
        <ele>219.14</ele>
        <time>2018-02-14T13:43:28.000Z</time>
      </trkpt>
      <trkpt lat="49.20684" lon="6.64752">
        <ele>218.18</ele>
        <time>2018-02-14T13:43:38.000Z</time>
      </trkpt>
      <trkpt lat="49.20696" lon="6.6474">
        <ele>219.72</ele>
        <time>2018-02-14T13:43:48.000Z</time>
      </trkpt>
      <trkpt lat="49.20705" lon="6.64729">
        <ele>219.34</ele>
        <time>2018-02-14T13:43:58.000Z</time>
      </trkpt>
      <trkpt lat="49.20715" lon="6.64717">
        <ele>219.15</ele>
        <time>2018-02-14T13:44:08.000Z</time>
      </trkpt>
      <trkpt lat="49.20724" lon="6.64707">
        <ele>217.48</ele>
        <time>2018-02-14T13:44:18.000Z</time>
      </trkpt>
      <trkpt lat="49.20735" lon="6.64696">
        <ele>219.14</ele>
        <time>2018-02-14T13:44:28.000Z</time>
      </trkpt>
      <trkpt lat="49.20743" lon="6.64683">
        <ele>217.8</ele>
        <time>2018-02-14T13:44:38.000Z</time>
      </trkpt>
      <trkpt lat="49.20748" lon="6.64673">
        <ele>214.34</ele>
        <time>2018-02-14T13:44:48.000Z</time>
      </trkpt>
      <trkpt lat="49.20753" lon="6.64661">
        <ele>210.48</ele>
        <time>2018-02-14T13:44:58.000Z</time>
      </trkpt>
      <trkpt lat="49.2076" lon="6.64645">
        <ele>214.78</ele>
        <time>2018-02-14T13:45:08.000Z</time>
      </trkpt>
      <trkpt lat="49.20766" lon="6.64628">
        <ele>216.56</ele>
        <time>2018-02-14T13:45:18.000Z</time>
      </trkpt>
      <trkpt lat="49.20772" lon="6.64614">
        <ele>214.65</ele>
        <time>2018-02-14T13:45:28.000Z</time>
      </trkpt>
      <trkpt lat="49.20775" lon="6.646">
        <ele>211.25</ele>
        <time>2018-02-14T13:45:38.000Z</time>
      </trkpt>
      <trkpt lat="49.20777" lon="6.64583">
        <ele>206.14</ele>
        <time>2018-02-14T13:45:48.000Z</time>
      </trkpt>
      <trkpt lat="49.20778" lon="6.64567">
        <ele>203.49</ele>
        <time>2018-02-14T13:45:58.000Z</time>
      </trkpt>
      <trkpt lat="49.20783" lon="6.64551">
        <ele>204.53</ele>
        <time>2018-02-14T13:46:08.000Z</time>
      </trkpt>
      <trkpt lat="49.20787" lon="6.64543">
        <ele>207.66</ele>
        <time>2018-02-14T13:46:18.000Z</time>
      </trkpt>
      <trkpt lat="49.20793" lon="6.64519">
        <ele>211.69</ele>
        <time>2018-02-14T13:46:28.000Z</time>
      </trkpt>
      <trkpt lat="49.20801" lon="6.64502">
        <ele>211.25</ele>
        <time>2018-02-14T13:46:38.000Z</time>
      </trkpt>
      <trkpt lat="49.2081" lon="6.64483">
        <ele>211.99</ele>
        <time>2018-02-14T13:46:48.000Z</time>
      </trkpt>
      <trkpt lat="49.20818" lon="6.64466">
        <ele>210.84</ele>
        <time>2018-02-14T13:46:58.000Z</time>
      </trkpt>
      <trkpt lat="49.20828" lon="6.64453">
        <ele>212.14</ele>
        <time>2018-02-14T13:47:08.000Z</time>
      </trkpt>
      <trkpt lat="49.20836" lon="6.64443">
        <ele>208.74</ele>
        <time>2018-02-14T13:47:18.000Z</time>
      </trkpt>
      <trkpt lat="49.20845" lon="6.64431">
        <ele>208.53</ele>
        <time>2018-02-14T13:47:28.000Z</time>
      </trkpt>
      <trkpt lat="49.20855" lon="6.64418">
        <ele>211.37</ele>
        <time>2018-02-14T13:47:38.000Z</time>
      </trkpt>
      <trkpt lat="49.20862" lon="6.64404">
        <ele>214.24</ele>
        <time>2018-02-14T13:47:48.000Z</time>
      </trkpt>
      <trkpt lat="49.20871" lon="6.6439">
        <ele>218.78</ele>
        <time>2018-02-14T13:47:58.000Z</time>
      </trkpt>
      <trkpt lat="49.20876" lon="6.64374">
        <ele>218.67</ele>
        <time>2018-02-14T13:48:08.000Z</time>
      </trkpt>
      <trkpt lat="49.20883" lon="6.64361">
        <ele>217.11</ele>
        <time>2018-02-14T13:48:18.000Z</time>
      </trkpt>
      <trkpt lat="49.20891" lon="6.64348">
        <ele>215.16</ele>
        <time>2018-02-14T13:48:28.000Z</time>
      </trkpt>
      <trkpt lat="49.20898" lon="6.64334">
        <ele>214.53</ele>
        <time>2018-02-14T13:48:38.000Z</time>
      </trkpt>
      <trkpt lat="49.20907" lon="6.64323">
        <ele>213.43</ele>
        <time>2018-02-14T13:48:48.000Z</time>
      </trkpt>
      <trkpt lat="49.2091" lon="6.6431">
        <ele>207.16</ele>
        <time>2018-02-14T13:48:58.000Z</time>
      </trkpt>
      <trkpt lat="49.20913" lon="6.64298">
        <ele>196.12</ele>
        <time>2018-02-14T13:49:08.000Z</time>
      </trkpt>
      <trkpt lat="49.20921" lon="6.6428">
        <ele>196.69</ele>
        <time>2018-02-14T13:49:18.000Z</time>
      </trkpt>
      <trkpt lat="49.20931" lon="6.64265">
        <ele>201.4</ele>
        <time>2018-02-14T13:49:28.000Z</time>
      </trkpt>
      <trkpt lat="49.20936" lon="6.64251">
        <ele>198.61</ele>
        <time>2018-02-14T13:49:38.000Z</time>
      </trkpt>
      <trkpt lat="49.2094" lon="6.64233">
        <ele>197.49</ele>
        <time>2018-02-14T13:49:48.000Z</time>
      </trkpt>
      <trkpt lat="49.20949" lon="6.6422">
        <ele>198.88</ele>
        <time>2018-02-14T13:49:58.000Z</time>
      </trkpt>
      <trkpt lat="49.20956" lon="6.64206">
        <ele>201.57</ele>
        <time>2018-02-14T13:50:08.000Z</time>
      </trkpt>
      <trkpt lat="49.20958" lon="6.64194">
        <ele>202.74</ele>
        <time>2018-02-14T13:50:18.000Z</time>
      </trkpt>
      <trkpt lat="49.2096" lon="6.64182">
        <ele>207.16</ele>
        <time>2018-02-14T13:50:28.000Z</time>
      </trkpt>
      <trkpt lat="49.2096" lon="6.64177">
        <ele>204.52</ele>
        <time>2018-02-14T13:50:38.000Z</time>
      </trkpt>
      <trkpt lat="49.20964" lon="6.64168">
        <ele>202.99</ele>
        <time>2018-02-14T13:50:48.000Z</time>
      </trkpt>
      <trkpt lat="49.20967" lon="6.64161">
        <ele>205.37</ele>
        <time>2018-02-14T13:50:58.000Z</time>
      </trkpt>
      <trkpt lat="49.20975" lon="6.64151">
        <ele>208.66</ele>
        <time>2018-02-14T13:51:08.000Z</time>
      </trkpt>
      <trkpt lat="49.20974" lon="6.64147">
        <ele>206.42</ele>
        <time>2018-02-14T13:51:20.000Z</time>
      </trkpt>
      <trkpt lat="49.20973" lon="6.64135">
        <ele>200.72</ele>
        <time>2018-02-14T13:51:30.000Z</time>
      </trkpt>
      <trkpt lat="49.20981" lon="6.64116">
        <ele>199.49</ele>
        <time>2018-02-14T13:51:40.000Z</time>
      </trkpt>
      <trkpt lat="49.20979" lon="6.64102">
        <ele>182.64</ele>
        <time>2018-02-14T13:51:50.000Z</time>
      </trkpt>
      <trkpt lat="49.20988" lon="6.64094">
        <ele>188.07</ele>
        <time>2018-02-14T13:52:00.000Z</time>
      </trkpt>
      <trkpt lat="49.21004" lon="6.64074">
        <ele>190.04</ele>
        <time>2018-02-14T13:52:10.000Z</time>
      </trkpt>
      <trkpt lat="49.21018" lon="6.64056">
        <ele>199.92</ele>
        <time>2018-02-14T13:52:20.000Z</time>
      </trkpt>
      <trkpt lat="49.21025" lon="6.64043">
        <ele>199.88</ele>
        <time>2018-02-14T13:52:30.000Z</time>
      </trkpt>
      <trkpt lat="49.21031" lon="6.64031">
        <ele>195.91</ele>
        <time>2018-02-14T13:52:40.000Z</time>
      </trkpt>
      <trkpt lat="49.21032" lon="6.64028">
        <ele>196.38</ele>
        <time>2018-02-14T13:52:50.000Z</time>
      </trkpt>
      <trkpt lat="49.2104" lon="6.63996">
        <ele>195.96</ele>
        <time>2018-02-14T13:53:00.000Z</time>
      </trkpt>
      <trkpt lat="49.21035" lon="6.63975">
        <ele>184.75</ele>
        <time>2018-02-14T13:53:10.000Z</time>
      </trkpt>
      <trkpt lat="49.21035" lon="6.63968">
        <ele>175.49</ele>
        <time>2018-02-14T13:53:20.000Z</time>
      </trkpt>
      <trkpt lat="49.21052" lon="6.63945">
        <ele>180.52</ele>
        <time>2018-02-14T13:53:30.000Z</time>
      </trkpt>
      <trkpt lat="49.21052" lon="6.63944">
        <ele>180.68</ele>
        <time>2018-02-14T13:53:40.000Z</time>
      </trkpt>
      <trkpt lat="49.21045" lon="6.63932">
        <ele>192.98</ele>
        <time>2018-02-14T13:54:24.000Z</time>
      </trkpt>
      <trkpt lat="49.21043" lon="6.63932">
        <ele>208.35</ele>
        <time>2018-02-14T13:54:48.000Z</time>
      </trkpt>
      <trkpt lat="49.21041" lon="6.63939">
        <ele>226.42</ele>
        <time>2018-02-14T13:54:58.000Z</time>
      </trkpt>
      <trkpt lat="49.21039" lon="6.63937">
        <ele>243.88</ele>
        <time>2018-02-14T13:55:20.000Z</time>
      </trkpt>
      <trkpt lat="49.21042" lon="6.63939">
        <ele>252.27</ele>
        <time>2018-02-14T13:55:30.000Z</time>
      </trkpt>
      <trkpt lat="49.21044" lon="6.63946">
        <ele>252.56</ele>
        <time>2018-02-14T13:55:40.000Z</time>
      </trkpt>
      <trkpt lat="49.21045" lon="6.63946">
        <ele>253.88</ele>
        <time>2018-02-14T13:55:50.000Z</time>
      </trkpt>
      <trkpt lat="49.21038" lon="6.63934">
        <ele>254.1</ele>
        <time>2018-02-14T13:56:16.000Z</time>
      </trkpt>
      <trkpt lat="49.21035" lon="6.63933">
        <ele>252.98</ele>
        <time>2018-02-14T13:56:26.000Z</time>
      </trkpt>
      <trkpt lat="49.21032" lon="6.63935">
        <ele>252</ele>
        <time>2018-02-14T13:56:45.000Z</time>
      </trkpt>
      <trkpt lat="49.21033" lon="6.63936">
        <ele>251.68</ele>
        <time>2018-02-14T13:56:55.000Z</time>
      </trkpt>
      <trkpt lat="49.21032" lon="6.6395">
        <ele>245.83</ele>
        <time>2018-02-14T13:57:13.000Z</time>
      </trkpt>
      <trkpt lat="49.21027" lon="6.63958">
        <ele>238.6</ele>
        <time>2018-02-14T13:57:23.000Z</time>
      </trkpt>
      <trkpt lat="49.21025" lon="6.63963">
        <ele>239.68</ele>
        <time>2018-02-14T13:57:33.000Z</time>
      </trkpt>
      <trkpt lat="49.21019" lon="6.63974">
        <ele>237.73</ele>
        <time>2018-02-14T13:58:25.000Z</time>
      </trkpt>
      <trkpt lat="49.21016" lon="6.63976">
        <ele>235.4</ele>
        <time>2018-02-14T13:59:06.000Z</time>
      </trkpt>
      <trkpt lat="49.21024" lon="6.63979">
        <ele>234.65</ele>
        <time>2018-02-14T14:01:33.000Z</time>
      </trkpt>
      <trkpt lat="49.21025" lon="6.63979">
        <ele>233.68</ele>
        <time>2018-02-14T14:01:43.000Z</time>
      </trkpt>
      <trkpt lat="49.21018" lon="6.63971">
        <ele>237.2</ele>
        <time>2018-02-14T14:03:01.000Z</time>
      </trkpt>
      <trkpt lat="49.2102" lon="6.63971">
        <ele>236.98</ele>
        <time>2018-02-14T14:05:02.000Z</time>
      </trkpt>
      <trkpt lat="49.21011" lon="6.63966">
        <ele>235.47</ele>
        <time>2018-02-14T14:05:12.000Z</time>
      </trkpt>
      <trkpt lat="49.21002" lon="6.63958">
        <ele>240.96</ele>
        <time>2018-02-14T14:05:22.000Z</time>
      </trkpt>
      <trkpt lat="49.20995" lon="6.63955">
        <ele>246.63</ele>
        <time>2018-02-14T14:05:32.000Z</time>
      </trkpt>
      <trkpt lat="49.20981" lon="6.63937">
        <ele>246.84</ele>
        <time>2018-02-14T14:05:42.000Z</time>
      </trkpt>
      <trkpt lat="49.2097" lon="6.63926">
        <ele>241.81</ele>
        <time>2018-02-14T14:05:52.000Z</time>
      </trkpt>
      <trkpt lat="49.20963" lon="6.63917">
        <ele>239.34</ele>
        <time>2018-02-14T14:06:02.000Z</time>
      </trkpt>
      <trkpt lat="49.20954" lon="6.63907">
        <ele>238.24</ele>
        <time>2018-02-14T14:06:12.000Z</time>
      </trkpt>
      <trkpt lat="49.20948" lon="6.63904">
        <ele>238.95</ele>
        <time>2018-02-14T14:06:22.000Z</time>
      </trkpt>
      <trkpt lat="49.20944" lon="6.63899">
        <ele>240.5</ele>
        <time>2018-02-14T14:06:32.000Z</time>
      </trkpt>
      <trkpt lat="49.2094" lon="6.63893">
        <ele>240.58</ele>
        <time>2018-02-14T14:06:42.000Z</time>
      </trkpt>
      <trkpt lat="49.20939" lon="6.63885">
        <ele>243.05</ele>
        <time>2018-02-14T14:06:57.000Z</time>
      </trkpt>
      <trkpt lat="49.20938" lon="6.63876">
        <ele>244.18</ele>
        <time>2018-02-14T14:07:07.000Z</time>
      </trkpt>
      <trkpt lat="49.20931" lon="6.6387">
        <ele>247.25</ele>
        <time>2018-02-14T14:07:19.000Z</time>
      </trkpt>
      <trkpt lat="49.20929" lon="6.63872">
        <ele>249.18</ele>
        <time>2018-02-14T14:07:29.000Z</time>
      </trkpt>
      <trkpt lat="49.2093" lon="6.63877">
        <ele>248.33</ele>
        <time>2018-02-14T14:07:39.000Z</time>
      </trkpt>
      <trkpt lat="49.20931" lon="6.63876">
        <ele>246.7</ele>
        <time>2018-02-14T14:08:11.000Z</time>
      </trkpt>
      <trkpt lat="49.20933" lon="6.63864">
        <ele>251.45</ele>
        <time>2018-02-14T14:11:41.000Z</time>
      </trkpt>
      <trkpt lat="49.20931" lon="6.6385">
        <ele>250.49</ele>
        <time>2018-02-14T14:11:51.000Z</time>
      </trkpt>
      <trkpt lat="49.20931" lon="6.63833">
        <ele>249.6</ele>
        <time>2018-02-14T14:12:01.000Z</time>
      </trkpt>
      <trkpt lat="49.20929" lon="6.63817">
        <ele>251.93</ele>
        <time>2018-02-14T14:12:11.000Z</time>
      </trkpt>
      <trkpt lat="49.20925" lon="6.63802">
        <ele>251.69</ele>
        <time>2018-02-14T14:12:21.000Z</time>
      </trkpt>
      <trkpt lat="49.20924" lon="6.63787">
        <ele>251.11</ele>
        <time>2018-02-14T14:12:31.000Z</time>
      </trkpt>
      <trkpt lat="49.20926" lon="6.6377">
        <ele>248.58</ele>
        <time>2018-02-14T14:12:41.000Z</time>
      </trkpt>
      <trkpt lat="49.20922" lon="6.63754">
        <ele>251.45</ele>
        <time>2018-02-14T14:12:51.000Z</time>
      </trkpt>
      <trkpt lat="49.20916" lon="6.63738">
        <ele>254.08</ele>
        <time>2018-02-14T14:13:01.000Z</time>
      </trkpt>
      <trkpt lat="49.2091" lon="6.63726">
        <ele>257.05</ele>
        <time>2018-02-14T14:13:11.000Z</time>
      </trkpt>
      <trkpt lat="49.20901" lon="6.63716">
        <ele>254.3</ele>
        <time>2018-02-14T14:13:21.000Z</time>
      </trkpt>
      <trkpt lat="49.20894" lon="6.63709">
        <ele>252.84</ele>
        <time>2018-02-14T14:13:31.000Z</time>
      </trkpt>
      <trkpt lat="49.20886" lon="6.63699">
        <ele>253.88</ele>
        <time>2018-02-14T14:13:41.000Z</time>
      </trkpt>
      <trkpt lat="49.20878" lon="6.63689">
        <ele>254.63</ele>
        <time>2018-02-14T14:13:51.000Z</time>
      </trkpt>
      <trkpt lat="49.20872" lon="6.63678">
        <ele>256.52</ele>
        <time>2018-02-14T14:14:01.000Z</time>
      </trkpt>
      <trkpt lat="49.20865" lon="6.63668">
        <ele>260.17</ele>
        <time>2018-02-14T14:14:11.000Z</time>
      </trkpt>
      <trkpt lat="49.20856" lon="6.6366">
        <ele>262.57</ele>
        <time>2018-02-14T14:14:21.000Z</time>
      </trkpt>
      <trkpt lat="49.20844" lon="6.63651">
        <ele>260.38</ele>
        <time>2018-02-14T14:14:31.000Z</time>
      </trkpt>
      <trkpt lat="49.20834" lon="6.63635">
        <ele>257.9</ele>
        <time>2018-02-14T14:14:41.000Z</time>
      </trkpt>
      <trkpt lat="49.20828" lon="6.63623">
        <ele>256.74</ele>
        <time>2018-02-14T14:14:51.000Z</time>
      </trkpt>
      <trkpt lat="49.20822" lon="6.63613">
        <ele>255.67</ele>
        <time>2018-02-14T14:15:01.000Z</time>
      </trkpt>
      <trkpt lat="49.20812" lon="6.63602">
        <ele>250.34</ele>
        <time>2018-02-14T14:15:11.000Z</time>
      </trkpt>
      <trkpt lat="49.208" lon="6.6359">
        <ele>252.06</ele>
        <time>2018-02-14T14:15:21.000Z</time>
      </trkpt>
      <trkpt lat="49.20794" lon="6.63574">
        <ele>256.52</ele>
        <time>2018-02-14T14:15:31.000Z</time>
      </trkpt>
      <trkpt lat="49.20789" lon="6.63553">
        <ele>257.97</ele>
        <time>2018-02-14T14:15:41.000Z</time>
      </trkpt>
      <trkpt lat="49.20788" lon="6.63534">
        <ele>258.41</ele>
        <time>2018-02-14T14:15:51.000Z</time>
      </trkpt>
      <trkpt lat="49.20784" lon="6.63518">
        <ele>258.36</ele>
        <time>2018-02-14T14:16:01.000Z</time>
      </trkpt>
      <trkpt lat="49.20784" lon="6.63497">
        <ele>259.4</ele>
        <time>2018-02-14T14:16:11.000Z</time>
      </trkpt>
      <trkpt lat="49.20781" lon="6.63482">
        <ele>260.34</ele>
        <time>2018-02-14T14:16:21.000Z</time>
      </trkpt>
      <trkpt lat="49.20782" lon="6.63467">
        <ele>260.79</ele>
        <time>2018-02-14T14:16:31.000Z</time>
      </trkpt>
      <trkpt lat="49.20782" lon="6.63449">
        <ele>261.44</ele>
        <time>2018-02-14T14:16:41.000Z</time>
      </trkpt>
      <trkpt lat="49.20777" lon="6.6342">
        <ele>264.45</ele>
        <time>2018-02-14T14:16:51.000Z</time>
      </trkpt>
      <trkpt lat="49.20775" lon="6.63398">
        <ele>264.66</ele>
        <time>2018-02-14T14:17:01.000Z</time>
      </trkpt>
      <trkpt lat="49.20774" lon="6.63381">
        <ele>266.38</ele>
        <time>2018-02-14T14:17:11.000Z</time>
      </trkpt>
      <trkpt lat="49.20771" lon="6.63368">
        <ele>267.45</ele>
        <time>2018-02-14T14:17:21.000Z</time>
      </trkpt>
      <trkpt lat="49.20764" lon="6.63354">
        <ele>268.34</ele>
        <time>2018-02-14T14:17:31.000Z</time>
      </trkpt>
      <trkpt lat="49.20761" lon="6.63337">
        <ele>269.42</ele>
        <time>2018-02-14T14:17:41.000Z</time>
      </trkpt>
      <trkpt lat="49.2076" lon="6.63322">
        <ele>269.49</ele>
        <time>2018-02-14T14:17:51.000Z</time>
      </trkpt>
      <trkpt lat="49.20756" lon="6.633">
        <ele>270.39</ele>
        <time>2018-02-14T14:18:01.000Z</time>
      </trkpt>
      <trkpt lat="49.20747" lon="6.63282">
        <ele>266.22</ele>
        <time>2018-02-14T14:18:11.000Z</time>
      </trkpt>
      <trkpt lat="49.20738" lon="6.63266">
        <ele>263.54</ele>
        <time>2018-02-14T14:18:21.000Z</time>
      </trkpt>
      <trkpt lat="49.20731" lon="6.63249">
        <ele>261.69</ele>
        <time>2018-02-14T14:18:31.000Z</time>
      </trkpt>
      <trkpt lat="49.20726" lon="6.63233">
        <ele>261.22</ele>
        <time>2018-02-14T14:18:41.000Z</time>
      </trkpt>
      <trkpt lat="49.20718" lon="6.63219">
        <ele>261.48</ele>
        <time>2018-02-14T14:18:51.000Z</time>
      </trkpt>
      <trkpt lat="49.20713" lon="6.63198">
        <ele>262.98</ele>
        <time>2018-02-14T14:19:01.000Z</time>
      </trkpt>
      <trkpt lat="49.20705" lon="6.63184">
        <ele>261.39</ele>
        <time>2018-02-14T14:19:11.000Z</time>
      </trkpt>
      <trkpt lat="49.20698" lon="6.63169">
        <ele>258.29</ele>
        <time>2018-02-14T14:19:21.000Z</time>
      </trkpt>
      <trkpt lat="49.2069" lon="6.63157">
        <ele>257.58</ele>
        <time>2018-02-14T14:19:31.000Z</time>
      </trkpt>
      <trkpt lat="49.20682" lon="6.63144">
        <ele>260.19</ele>
        <time>2018-02-14T14:19:41.000Z</time>
      </trkpt>
      <trkpt lat="49.20673" lon="6.63137">
        <ele>261.95</ele>
        <time>2018-02-14T14:19:51.000Z</time>
      </trkpt>
      <trkpt lat="49.20662" lon="6.6313">
        <ele>257.85</ele>
        <time>2018-02-14T14:20:01.000Z</time>
      </trkpt>
      <trkpt lat="49.20644" lon="6.63123">
        <ele>258.65</ele>
        <time>2018-02-14T14:20:11.000Z</time>
      </trkpt>
      <trkpt lat="49.20632" lon="6.63112">
        <ele>257.28</ele>
        <time>2018-02-14T14:20:21.000Z</time>
      </trkpt>
      <trkpt lat="49.2062" lon="6.63104">
        <ele>257.39</ele>
        <time>2018-02-14T14:20:31.000Z</time>
      </trkpt>
      <trkpt lat="49.20608" lon="6.63092">
        <ele>260.86</ele>
        <time>2018-02-14T14:20:41.000Z</time>
      </trkpt>
      <trkpt lat="49.20596" lon="6.63082">
        <ele>262.58</ele>
        <time>2018-02-14T14:20:51.000Z</time>
      </trkpt>
      <trkpt lat="49.20586" lon="6.63072">
        <ele>263.12</ele>
        <time>2018-02-14T14:21:01.000Z</time>
      </trkpt>
      <trkpt lat="49.20573" lon="6.63067">
        <ele>262.23</ele>
        <time>2018-02-14T14:21:11.000Z</time>
      </trkpt>
      <trkpt lat="49.20562" lon="6.63059">
        <ele>259.85</ele>
        <time>2018-02-14T14:21:21.000Z</time>
      </trkpt>
      <trkpt lat="49.2055" lon="6.63052">
        <ele>259.34</ele>
        <time>2018-02-14T14:21:31.000Z</time>
      </trkpt>
      <trkpt lat="49.20538" lon="6.63045">
        <ele>259.67</ele>
        <time>2018-02-14T14:21:41.000Z</time>
      </trkpt>
      <trkpt lat="49.20528" lon="6.63035">
        <ele>259.5</ele>
        <time>2018-02-14T14:21:51.000Z</time>
      </trkpt>
      <trkpt lat="49.20519" lon="6.63026">
        <ele>258.5</ele>
        <time>2018-02-14T14:22:01.000Z</time>
      </trkpt>
      <trkpt lat="49.20507" lon="6.63018">
        <ele>257.8</ele>
        <time>2018-02-14T14:22:11.000Z</time>
      </trkpt>
      <trkpt lat="49.20496" lon="6.6301">
        <ele>258.91</ele>
        <time>2018-02-14T14:22:21.000Z</time>
      </trkpt>
      <trkpt lat="49.20485" lon="6.63">
        <ele>261.31</ele>
        <time>2018-02-14T14:22:31.000Z</time>
      </trkpt>
      <trkpt lat="49.20473" lon="6.62992">
        <ele>261.75</ele>
        <time>2018-02-14T14:22:41.000Z</time>
      </trkpt>
      <trkpt lat="49.20461" lon="6.62987">
        <ele>260.29</ele>
        <time>2018-02-14T14:22:51.000Z</time>
      </trkpt>
      <trkpt lat="49.20449" lon="6.6298">
        <ele>260.31</ele>
        <time>2018-02-14T14:23:01.000Z</time>
      </trkpt>
      <trkpt lat="49.20438" lon="6.62972">
        <ele>259.38</ele>
        <time>2018-02-14T14:23:11.000Z</time>
      </trkpt>
      <trkpt lat="49.20428" lon="6.62962">
        <ele>259.17</ele>
        <time>2018-02-14T14:23:21.000Z</time>
      </trkpt>
      <trkpt lat="49.20416" lon="6.62955">
        <ele>260.93</ele>
        <time>2018-02-14T14:23:31.000Z</time>
      </trkpt>
      <trkpt lat="49.20406" lon="6.62946">
        <ele>261.53</ele>
        <time>2018-02-14T14:23:41.000Z</time>
      </trkpt>
      <trkpt lat="49.20401" lon="6.62939">
        <ele>263.69</ele>
        <time>2018-02-14T14:23:51.000Z</time>
      </trkpt>
      <trkpt lat="49.20393" lon="6.62945">
        <ele>268.79</ele>
        <time>2018-02-14T14:30:12.000Z</time>
      </trkpt>
      <trkpt lat="49.20392" lon="6.62946">
        <ele>266.89</ele>
        <time>2018-02-14T14:30:22.000Z</time>
      </trkpt>
      <trkpt lat="49.20393" lon="6.62936">
        <ele>267.49</ele>
        <time>2018-02-14T14:32:25.000Z</time>
      </trkpt>
      <trkpt lat="49.20385" lon="6.62929">
        <ele>266.44</ele>
        <time>2018-02-14T14:32:35.000Z</time>
      </trkpt>
      <trkpt lat="49.20375" lon="6.62922">
        <ele>267.08</ele>
        <time>2018-02-14T14:32:45.000Z</time>
      </trkpt>
      <trkpt lat="49.20365" lon="6.62913">
        <ele>267.34</ele>
        <time>2018-02-14T14:32:55.000Z</time>
      </trkpt>
      <trkpt lat="49.20356" lon="6.62907">
        <ele>266.71</ele>
        <time>2018-02-14T14:33:05.000Z</time>
      </trkpt>
      <trkpt lat="49.20344" lon="6.62896">
        <ele>267.33</ele>
        <time>2018-02-14T14:33:15.000Z</time>
      </trkpt>
      <trkpt lat="49.20333" lon="6.62886">
        <ele>269.16</ele>
        <time>2018-02-14T14:33:25.000Z</time>
      </trkpt>
      <trkpt lat="49.20322" lon="6.62879">
        <ele>268.99</ele>
        <time>2018-02-14T14:33:35.000Z</time>
      </trkpt>
      <trkpt lat="49.2031" lon="6.62874">
        <ele>266.02</ele>
        <time>2018-02-14T14:33:45.000Z</time>
      </trkpt>
      <trkpt lat="49.20299" lon="6.62866">
        <ele>266.16</ele>
        <time>2018-02-14T14:33:55.000Z</time>
      </trkpt>
      <trkpt lat="49.20289" lon="6.62857">
        <ele>267.73</ele>
        <time>2018-02-14T14:34:05.000Z</time>
      </trkpt>
      <trkpt lat="49.20278" lon="6.62849">
        <ele>268.12</ele>
        <time>2018-02-14T14:34:15.000Z</time>
      </trkpt>
      <trkpt lat="49.20268" lon="6.62839">
        <ele>267.47</ele>
        <time>2018-02-14T14:34:25.000Z</time>
      </trkpt>
      <trkpt lat="49.20257" lon="6.62832">
        <ele>265.33</ele>
        <time>2018-02-14T14:34:35.000Z</time>
      </trkpt>
      <trkpt lat="49.20246" lon="6.62828">
        <ele>263.62</ele>
        <time>2018-02-14T14:34:45.000Z</time>
      </trkpt>
      <trkpt lat="49.20234" lon="6.62816">
        <ele>266.61</ele>
        <time>2018-02-14T14:34:55.000Z</time>
      </trkpt>
      <trkpt lat="49.20225" lon="6.62807">
        <ele>267.53</ele>
        <time>2018-02-14T14:35:05.000Z</time>
      </trkpt>
      <trkpt lat="49.20224" lon="6.62807">
        <ele>268.29</ele>
        <time>2018-02-14T14:35:20.000Z</time>
      </trkpt>
      <trkpt lat="49.20218" lon="6.62804">
        <ele>271.98</ele>
        <time>2018-02-14T14:35:30.000Z</time>
      </trkpt>
      <trkpt lat="49.20215" lon="6.62801">
        <ele>274.87</ele>
        <time>2018-02-14T14:36:45.000Z</time>
      </trkpt>
      <trkpt lat="49.20203" lon="6.62799">
        <ele>274.66</ele>
        <time>2018-02-14T14:36:55.000Z</time>
      </trkpt>
      <trkpt lat="49.20191" lon="6.6279">
        <ele>273.23</ele>
        <time>2018-02-14T14:37:05.000Z</time>
      </trkpt>
      <trkpt lat="49.2018" lon="6.62778">
        <ele>271.76</ele>
        <time>2018-02-14T14:37:15.000Z</time>
      </trkpt>
      <trkpt lat="49.20172" lon="6.62767">
        <ele>269.79</ele>
        <time>2018-02-14T14:37:25.000Z</time>
      </trkpt>
      <trkpt lat="49.20167" lon="6.62763">
        <ele>270.19</ele>
        <time>2018-02-14T14:37:35.000Z</time>
      </trkpt>
      <trkpt lat="49.2016" lon="6.62757">
        <ele>269.98</ele>
        <time>2018-02-14T14:37:45.000Z</time>
      </trkpt>
      <trkpt lat="49.2015" lon="6.62747">
        <ele>271.79</ele>
        <time>2018-02-14T14:37:55.000Z</time>
      </trkpt>
      <trkpt lat="49.2014" lon="6.62739">
        <ele>270.17</ele>
        <time>2018-02-14T14:38:05.000Z</time>
      </trkpt>
      <trkpt lat="49.2013" lon="6.62728">
        <ele>270.64</ele>
        <time>2018-02-14T14:38:15.000Z</time>
      </trkpt>
      <trkpt lat="49.20119" lon="6.62719">
        <ele>271.56</ele>
        <time>2018-02-14T14:38:25.000Z</time>
      </trkpt>
      <trkpt lat="49.20108" lon="6.62707">
        <ele>272.03</ele>
        <time>2018-02-14T14:38:35.000Z</time>
      </trkpt>
      <trkpt lat="49.20096" lon="6.62698">
        <ele>272.89</ele>
        <time>2018-02-14T14:38:45.000Z</time>
      </trkpt>
      <trkpt lat="49.20083" lon="6.62687">
        <ele>273.14</ele>
        <time>2018-02-14T14:38:55.000Z</time>
      </trkpt>
      <trkpt lat="49.20072" lon="6.62674">
        <ele>273.44</ele>
        <time>2018-02-14T14:39:05.000Z</time>
      </trkpt>
      <trkpt lat="49.20059" lon="6.62665">
        <ele>273.94</ele>
        <time>2018-02-14T14:39:15.000Z</time>
      </trkpt>
      <trkpt lat="49.20048" lon="6.62657">
        <ele>272.83</ele>
        <time>2018-02-14T14:39:25.000Z</time>
      </trkpt>
      <trkpt lat="49.20036" lon="6.62648">
        <ele>270.86</ele>
        <time>2018-02-14T14:39:35.000Z</time>
      </trkpt>
      <trkpt lat="49.20023" lon="6.6264">
        <ele>271.51</ele>
        <time>2018-02-14T14:39:45.000Z</time>
      </trkpt>
      <trkpt lat="49.20012" lon="6.6263">
        <ele>271.5</ele>
        <time>2018-02-14T14:39:55.000Z</time>
      </trkpt>
      <trkpt lat="49.20002" lon="6.62619">
        <ele>272.08</ele>
        <time>2018-02-14T14:40:05.000Z</time>
      </trkpt>
      <trkpt lat="49.1999" lon="6.62608">
        <ele>272.06</ele>
        <time>2018-02-14T14:40:15.000Z</time>
      </trkpt>
      <trkpt lat="49.19978" lon="6.62598">
        <ele>273.65</ele>
        <time>2018-02-14T14:40:25.000Z</time>
      </trkpt>
      <trkpt lat="49.19966" lon="6.62591">
        <ele>272.93</ele>
        <time>2018-02-14T14:40:35.000Z</time>
      </trkpt>
      <trkpt lat="49.19954" lon="6.62582">
        <ele>271.53</ele>
        <time>2018-02-14T14:40:45.000Z</time>
      </trkpt>
      <trkpt lat="49.19944" lon="6.62573">
        <ele>269.72</ele>
        <time>2018-02-14T14:40:55.000Z</time>
      </trkpt>
      <trkpt lat="49.19932" lon="6.62561">
        <ele>270.94</ele>
        <time>2018-02-14T14:41:05.000Z</time>
      </trkpt>
      <trkpt lat="49.19919" lon="6.62551">
        <ele>272.07</ele>
        <time>2018-02-14T14:41:15.000Z</time>
      </trkpt>
      <trkpt lat="49.19908" lon="6.62541">
        <ele>272.2</ele>
        <time>2018-02-14T14:41:25.000Z</time>
      </trkpt>
      <trkpt lat="49.19897" lon="6.6253">
        <ele>271.74</ele>
        <time>2018-02-14T14:41:35.000Z</time>
      </trkpt>
      <trkpt lat="49.19885" lon="6.62518">
        <ele>272.33</ele>
        <time>2018-02-14T14:41:45.000Z</time>
      </trkpt>
      <trkpt lat="49.19873" lon="6.62508">
        <ele>273.38</ele>
        <time>2018-02-14T14:41:55.000Z</time>
      </trkpt>
      <trkpt lat="49.1986" lon="6.62503">
        <ele>272.59</ele>
        <time>2018-02-14T14:42:05.000Z</time>
      </trkpt>
      <trkpt lat="49.19851" lon="6.62499">
        <ele>271.35</ele>
        <time>2018-02-14T14:42:15.000Z</time>
      </trkpt>
      <trkpt lat="49.19839" lon="6.62496">
        <ele>269.24</ele>
        <time>2018-02-14T14:42:25.000Z</time>
      </trkpt>
      <trkpt lat="49.19828" lon="6.62489">
        <ele>269.57</ele>
        <time>2018-02-14T14:42:35.000Z</time>
      </trkpt>
      <trkpt lat="49.19816" lon="6.62483">
        <ele>269.84</ele>
        <time>2018-02-14T14:42:45.000Z</time>
      </trkpt>
      <trkpt lat="49.198" lon="6.62478">
        <ele>270.05</ele>
        <time>2018-02-14T14:42:55.000Z</time>
      </trkpt>
      <trkpt lat="49.19785" lon="6.62473">
        <ele>270.98</ele>
        <time>2018-02-14T14:43:05.000Z</time>
      </trkpt>
      <trkpt lat="49.19775" lon="6.6247">
        <ele>271.31</ele>
        <time>2018-02-14T14:43:15.000Z</time>
      </trkpt>
      <trkpt lat="49.19765" lon="6.62469">
        <ele>270.09</ele>
        <time>2018-02-14T14:43:25.000Z</time>
      </trkpt>
      <trkpt lat="49.19756" lon="6.62464">
        <ele>267.12</ele>
        <time>2018-02-14T14:43:35.000Z</time>
      </trkpt>
      <trkpt lat="49.19744" lon="6.62459">
        <ele>266.35</ele>
        <time>2018-02-14T14:43:45.000Z</time>
      </trkpt>
      <trkpt lat="49.19731" lon="6.62456">
        <ele>265.31</ele>
        <time>2018-02-14T14:43:55.000Z</time>
      </trkpt>
      <trkpt lat="49.19721" lon="6.62452">
        <ele>264.89</ele>
        <time>2018-02-14T14:44:05.000Z</time>
      </trkpt>
      <trkpt lat="49.19703" lon="6.62451">
        <ele>266.22</ele>
        <time>2018-02-14T14:44:15.000Z</time>
      </trkpt>
      <trkpt lat="49.19692" lon="6.6245">
        <ele>266.88</ele>
        <time>2018-02-14T14:44:25.000Z</time>
      </trkpt>
      <trkpt lat="49.1968" lon="6.62449">
        <ele>268.64</ele>
        <time>2018-02-14T14:44:35.000Z</time>
      </trkpt>
      <trkpt lat="49.19666" lon="6.62443">
        <ele>272.22</ele>
        <time>2018-02-14T14:44:45.000Z</time>
      </trkpt>
      <trkpt lat="49.19649" lon="6.62434">
        <ele>270.93</ele>
        <time>2018-02-14T14:44:55.000Z</time>
      </trkpt>
      <trkpt lat="49.19638" lon="6.62428">
        <ele>270.35</ele>
        <time>2018-02-14T14:45:05.000Z</time>
      </trkpt>
      <trkpt lat="49.19625" lon="6.62426">
        <ele>271.37</ele>
        <time>2018-02-14T14:45:15.000Z</time>
      </trkpt>
      <trkpt lat="49.1961" lon="6.62424">
        <ele>270.43</ele>
        <time>2018-02-14T14:45:25.000Z</time>
      </trkpt>
      <trkpt lat="49.19597" lon="6.62419">
        <ele>268.74</ele>
        <time>2018-02-14T14:45:35.000Z</time>
      </trkpt>
      <trkpt lat="49.19583" lon="6.62417">
        <ele>267.68</ele>
        <time>2018-02-14T14:45:45.000Z</time>
      </trkpt>
      <trkpt lat="49.19569" lon="6.62409">
        <ele>267.89</ele>
        <time>2018-02-14T14:45:55.000Z</time>
      </trkpt>
      <trkpt lat="49.19557" lon="6.62401">
        <ele>268.48</ele>
        <time>2018-02-14T14:46:05.000Z</time>
      </trkpt>
      <trkpt lat="49.19542" lon="6.62396">
        <ele>271.02</ele>
        <time>2018-02-14T14:46:15.000Z</time>
      </trkpt>
      <trkpt lat="49.1953" lon="6.62393">
        <ele>271.17</ele>
        <time>2018-02-14T14:46:25.000Z</time>
      </trkpt>
      <trkpt lat="49.19516" lon="6.62393">
        <ele>266.1</ele>
        <time>2018-02-14T14:46:35.000Z</time>
      </trkpt>
      <trkpt lat="49.19505" lon="6.62396">
        <ele>268.2</ele>
        <time>2018-02-14T14:46:45.000Z</time>
      </trkpt>
      <trkpt lat="49.19504" lon="6.62401">
        <ele>269.7</ele>
        <time>2018-02-14T14:46:55.000Z</time>
      </trkpt>
      <trkpt lat="49.195" lon="6.62411">
        <ele>271.13</ele>
        <time>2018-02-14T14:47:05.000Z</time>
      </trkpt>
      <trkpt lat="49.19494" lon="6.6242">
        <ele>269.56</ele>
        <time>2018-02-14T14:47:15.000Z</time>
      </trkpt>
      <trkpt lat="49.19488" lon="6.62436">
        <ele>267.71</ele>
        <time>2018-02-14T14:47:25.000Z</time>
      </trkpt>
      <trkpt lat="49.19483" lon="6.62453">
        <ele>263.64</ele>
        <time>2018-02-14T14:47:35.000Z</time>
      </trkpt>
      <trkpt lat="49.19472" lon="6.62466">
        <ele>255.66</ele>
        <time>2018-02-14T14:47:45.000Z</time>
      </trkpt>
      <trkpt lat="49.19458" lon="6.62483">
        <ele>260.34</ele>
        <time>2018-02-14T14:47:55.000Z</time>
      </trkpt>
      <trkpt lat="49.19446" lon="6.62501">
        <ele>263.74</ele>
        <time>2018-02-14T14:48:05.000Z</time>
      </trkpt>
      <trkpt lat="49.19441" lon="6.62515">
        <ele>262.34</ele>
        <time>2018-02-14T14:48:15.000Z</time>
      </trkpt>
      <trkpt lat="49.19437" lon="6.62528">
        <ele>262.32</ele>
        <time>2018-02-14T14:48:25.000Z</time>
      </trkpt>
      <trkpt lat="49.19431" lon="6.62539">
        <ele>258.95</ele>
        <time>2018-02-14T14:48:35.000Z</time>
      </trkpt>
      <trkpt lat="49.19424" lon="6.62553">
        <ele>259.88</ele>
        <time>2018-02-14T14:48:45.000Z</time>
      </trkpt>
      <trkpt lat="49.19417" lon="6.62564">
        <ele>259.21</ele>
        <time>2018-02-14T14:48:55.000Z</time>
      </trkpt>
      <trkpt lat="49.19411" lon="6.62575">
        <ele>257.47</ele>
        <time>2018-02-14T14:49:05.000Z</time>
      </trkpt>
      <trkpt lat="49.19401" lon="6.62586">
        <ele>258.21</ele>
        <time>2018-02-14T14:49:15.000Z</time>
      </trkpt>
      <trkpt lat="49.19387" lon="6.626">
        <ele>270.01</ele>
        <time>2018-02-14T14:49:25.000Z</time>
      </trkpt>
      <trkpt lat="49.19382" lon="6.62606">
        <ele>271.01</ele>
        <time>2018-02-14T14:49:35.000Z</time>
      </trkpt>
      <trkpt lat="49.1938" lon="6.62612">
        <ele>271.77</ele>
        <time>2018-02-14T14:49:45.000Z</time>
      </trkpt>
      <trkpt lat="49.19379" lon="6.62615">
        <ele>271.8</ele>
        <time>2018-02-14T14:49:55.000Z</time>
      </trkpt>
      <trkpt lat="49.19373" lon="6.62627">
        <ele>272.23</ele>
        <time>2018-02-14T14:50:05.000Z</time>
      </trkpt>
      <trkpt lat="49.19368" lon="6.62638">
        <ele>272.79</ele>
        <time>2018-02-14T14:50:15.000Z</time>
      </trkpt>
      <trkpt lat="49.19365" lon="6.62648">
        <ele>274.71</ele>
        <time>2018-02-14T14:50:25.000Z</time>
      </trkpt>
      <trkpt lat="49.1936" lon="6.62664">
        <ele>276.61</ele>
        <time>2018-02-14T14:50:35.000Z</time>
      </trkpt>
      <trkpt lat="49.19357" lon="6.62679">
        <ele>275.49</ele>
        <time>2018-02-14T14:50:45.000Z</time>
      </trkpt>
      <trkpt lat="49.19356" lon="6.62695">
        <ele>266.29</ele>
        <time>2018-02-14T14:50:55.000Z</time>
      </trkpt>
      <trkpt lat="49.19351" lon="6.62712">
        <ele>259.71</ele>
        <time>2018-02-14T14:51:05.000Z</time>
      </trkpt>
      <trkpt lat="49.19346" lon="6.62729">
        <ele>258.85</ele>
        <time>2018-02-14T14:51:15.000Z</time>
      </trkpt>
      <trkpt lat="49.19342" lon="6.62746">
        <ele>257.63</ele>
        <time>2018-02-14T14:51:25.000Z</time>
      </trkpt>
      <trkpt lat="49.19337" lon="6.62766">
        <ele>265.02</ele>
        <time>2018-02-14T14:51:35.000Z</time>
      </trkpt>
      <trkpt lat="49.19333" lon="6.62783">
        <ele>269.77</ele>
        <time>2018-02-14T14:51:45.000Z</time>
      </trkpt>
      <trkpt lat="49.19327" lon="6.62801">
        <ele>267.2</ele>
        <time>2018-02-14T14:51:55.000Z</time>
      </trkpt>
      <trkpt lat="49.19323" lon="6.62819">
        <ele>263.97</ele>
        <time>2018-02-14T14:52:05.000Z</time>
      </trkpt>
      <trkpt lat="49.19322" lon="6.62826">
        <ele>264.59</ele>
        <time>2018-02-14T14:52:15.000Z</time>
      </trkpt>
      <trkpt lat="49.19321" lon="6.62849">
        <ele>260.94</ele>
        <time>2018-02-14T14:52:25.000Z</time>
      </trkpt>
      <trkpt lat="49.19318" lon="6.62868">
        <ele>259.41</ele>
        <time>2018-02-14T14:52:35.000Z</time>
      </trkpt>
      <trkpt lat="49.19314" lon="6.62888">
        <ele>261.37</ele>
        <time>2018-02-14T14:52:45.000Z</time>
      </trkpt>
      <trkpt lat="49.1931" lon="6.62905">
        <ele>272.51</ele>
        <time>2018-02-14T14:52:55.000Z</time>
      </trkpt>
      <trkpt lat="49.19307" lon="6.62925">
        <ele>274.88</ele>
        <time>2018-02-14T14:53:05.000Z</time>
      </trkpt>
      <trkpt lat="49.19305" lon="6.62947">
        <ele>274.88</ele>
        <time>2018-02-14T14:53:15.000Z</time>
      </trkpt>
      <trkpt lat="49.19301" lon="6.62963">
        <ele>275.45</ele>
        <time>2018-02-14T14:53:25.000Z</time>
      </trkpt>
      <trkpt lat="49.19299" lon="6.62982">
        <ele>272.67</ele>
        <time>2018-02-14T14:53:35.000Z</time>
      </trkpt>
      <trkpt lat="49.19297" lon="6.62997">
        <ele>280.47</ele>
        <time>2018-02-14T14:53:45.000Z</time>
      </trkpt>
      <trkpt lat="49.19292" lon="6.63017">
        <ele>279.03</ele>
        <time>2018-02-14T14:53:55.000Z</time>
      </trkpt>
      <trkpt lat="49.19287" lon="6.63035">
        <ele>275.17</ele>
        <time>2018-02-14T14:54:05.000Z</time>
      </trkpt>
      <trkpt lat="49.19283" lon="6.6305">
        <ele>271.31</ele>
        <time>2018-02-14T14:54:15.000Z</time>
      </trkpt>
      <trkpt lat="49.1928" lon="6.63053">
        <ele>264.79</ele>
        <time>2018-02-14T14:54:25.000Z</time>
      </trkpt>
      <trkpt lat="49.19276" lon="6.63063">
        <ele>261.59</ele>
        <time>2018-02-14T14:54:35.000Z</time>
      </trkpt>
      <trkpt lat="49.19272" lon="6.63073">
        <ele>253.17</ele>
        <time>2018-02-14T14:54:45.000Z</time>
      </trkpt>
      <trkpt lat="49.19267" lon="6.6309">
        <ele>249.69</ele>
        <time>2018-02-14T14:54:55.000Z</time>
      </trkpt>
      <trkpt lat="49.19256" lon="6.63109">
        <ele>255.99</ele>
        <time>2018-02-14T14:55:05.000Z</time>
      </trkpt>
      <trkpt lat="49.19247" lon="6.63123">
        <ele>257.06</ele>
        <time>2018-02-14T14:55:15.000Z</time>
      </trkpt>
      <trkpt lat="49.19241" lon="6.63132">
        <ele>256.73</ele>
        <time>2018-02-14T14:55:25.000Z</time>
      </trkpt>
      <trkpt lat="49.19232" lon="6.63146">
        <ele>254.61</ele>
        <time>2018-02-14T14:55:35.000Z</time>
      </trkpt>
      <trkpt lat="49.19221" lon="6.63161">
        <ele>259.55</ele>
        <time>2018-02-14T14:55:45.000Z</time>
      </trkpt>
      <trkpt lat="49.19214" lon="6.63175">
        <ele>262.93</ele>
        <time>2018-02-14T14:55:55.000Z</time>
      </trkpt>
      <trkpt lat="49.19206" lon="6.63189">
        <ele>262.28</ele>
        <time>2018-02-14T14:56:05.000Z</time>
      </trkpt>
      <trkpt lat="49.19193" lon="6.63202">
        <ele>262.87</ele>
        <time>2018-02-14T14:56:15.000Z</time>
      </trkpt>
      <trkpt lat="49.19182" lon="6.63216">
        <ele>270.37</ele>
        <time>2018-02-14T14:56:25.000Z</time>
      </trkpt>
      <trkpt lat="49.19175" lon="6.63225">
        <ele>267.33</ele>
        <time>2018-02-14T14:56:35.000Z</time>
      </trkpt>
      <trkpt lat="49.19166" lon="6.63235">
        <ele>264.68</ele>
        <time>2018-02-14T14:56:45.000Z</time>
      </trkpt>
      <trkpt lat="49.19153" lon="6.63243">
        <ele>270.47</ele>
        <time>2018-02-14T14:56:55.000Z</time>
      </trkpt>
      <trkpt lat="49.19137" lon="6.6325">
        <ele>277.5</ele>
        <time>2018-02-14T14:57:05.000Z</time>
      </trkpt>
      <trkpt lat="49.19124" lon="6.63249">
        <ele>278.14</ele>
        <time>2018-02-14T14:57:15.000Z</time>
      </trkpt>
      <trkpt lat="49.19122" lon="6.63248">
        <ele>277.99</ele>
        <time>2018-02-14T14:57:25.000Z</time>
      </trkpt>
      <trkpt lat="49.19105" lon="6.63242">
        <ele>276.46</ele>
        <time>2018-02-14T14:57:35.000Z</time>
      </trkpt>
      <trkpt lat="49.19092" lon="6.63231">
        <ele>262.61</ele>
        <time>2018-02-14T14:57:45.000Z</time>
      </trkpt>
      <trkpt lat="49.19084" lon="6.63221">
        <ele>256.33</ele>
        <time>2018-02-14T14:57:55.000Z</time>
      </trkpt>
      <trkpt lat="49.19075" lon="6.63216">
        <ele>250.95</ele>
        <time>2018-02-14T14:58:05.000Z</time>
      </trkpt>
      <trkpt lat="49.19064" lon="6.63202">
        <ele>248.7</ele>
        <time>2018-02-14T14:58:15.000Z</time>
      </trkpt>
      <trkpt lat="49.1905" lon="6.63194">
        <ele>238.33</ele>
        <time>2018-02-14T14:58:25.000Z</time>
      </trkpt>
      <trkpt lat="49.19041" lon="6.63192">
        <ele>236.5</ele>
        <time>2018-02-14T14:58:35.000Z</time>
      </trkpt>
      <trkpt lat="49.19031" lon="6.63195">
        <ele>232.14</ele>
        <time>2018-02-14T14:58:45.000Z</time>
      </trkpt>
      <trkpt lat="49.19018" lon="6.63203">
        <ele>227.1</ele>
        <time>2018-02-14T14:58:55.000Z</time>
      </trkpt>
      <trkpt lat="49.19006" lon="6.63213">
        <ele>225.47</ele>
        <time>2018-02-14T14:59:05.000Z</time>
      </trkpt>
      <trkpt lat="49.18997" lon="6.63227">
        <ele>221.99</ele>
        <time>2018-02-14T14:59:15.000Z</time>
      </trkpt>
      <trkpt lat="49.18991" lon="6.63241">
        <ele>224.56</ele>
        <time>2018-02-14T14:59:25.000Z</time>
      </trkpt>
      <trkpt lat="49.18986" lon="6.63256">
        <ele>215.82</ele>
        <time>2018-02-14T14:59:35.000Z</time>
      </trkpt>
      <trkpt lat="49.18982" lon="6.6327">
        <ele>210.73</ele>
        <time>2018-02-14T14:59:45.000Z</time>
      </trkpt>
      <trkpt lat="49.18979" lon="6.63288">
        <ele>209.89</ele>
        <time>2018-02-14T14:59:55.000Z</time>
      </trkpt>
      <trkpt lat="49.18973" lon="6.63309">
        <ele>215.49</ele>
        <time>2018-02-14T15:00:05.000Z</time>
      </trkpt>
      <trkpt lat="49.18971" lon="6.6333">
        <ele>215.44</ele>
        <time>2018-02-14T15:00:15.000Z</time>
      </trkpt>
      <trkpt lat="49.18969" lon="6.63351">
        <ele>214.13</ele>
        <time>2018-02-14T15:00:25.000Z</time>
      </trkpt>
      <trkpt lat="49.18968" lon="6.63368">
        <ele>209.7</ele>
        <time>2018-02-14T15:00:35.000Z</time>
      </trkpt>
      <trkpt lat="49.18962" lon="6.63389">
        <ele>211.81</ele>
        <time>2018-02-14T15:00:45.000Z</time>
      </trkpt>
      <trkpt lat="49.18959" lon="6.63409">
        <ele>212.36</ele>
        <time>2018-02-14T15:00:55.000Z</time>
      </trkpt>
      <trkpt lat="49.18954" lon="6.63432">
        <ele>218.74</ele>
        <time>2018-02-14T15:01:05.000Z</time>
      </trkpt>
      <trkpt lat="49.18948" lon="6.6345">
        <ele>218.3</ele>
        <time>2018-02-14T15:01:15.000Z</time>
      </trkpt>
      <trkpt lat="49.18935" lon="6.6347">
        <ele>223.32</ele>
        <time>2018-02-14T15:01:25.000Z</time>
      </trkpt>
      <trkpt lat="49.18925" lon="6.63482">
        <ele>224.67</ele>
        <time>2018-02-14T15:01:35.000Z</time>
      </trkpt>
      <trkpt lat="49.18917" lon="6.63488">
        <ele>221.26</ele>
        <time>2018-02-14T15:01:45.000Z</time>
      </trkpt>
      <trkpt lat="49.18908" lon="6.63494">
        <ele>216.08</ele>
        <time>2018-02-14T15:01:55.000Z</time>
      </trkpt>
      <trkpt lat="49.18897" lon="6.63503">
        <ele>213.49</ele>
        <time>2018-02-14T15:02:05.000Z</time>
      </trkpt>
      <trkpt lat="49.18888" lon="6.63509">
        <ele>209.38</ele>
        <time>2018-02-14T15:02:15.000Z</time>
      </trkpt>
      <trkpt lat="49.1888" lon="6.63516">
        <ele>204.46</ele>
        <time>2018-02-14T15:02:25.000Z</time>
      </trkpt>
      <trkpt lat="49.18873" lon="6.63523">
        <ele>198.4</ele>
        <time>2018-02-14T15:02:35.000Z</time>
      </trkpt>
      <trkpt lat="49.18869" lon="6.63529">
        <ele>192.31</ele>
        <time>2018-02-14T15:02:45.000Z</time>
      </trkpt>
      <trkpt lat="49.18865" lon="6.63533">
        <ele>190.18</ele>
        <time>2018-02-14T15:02:55.000Z</time>
      </trkpt>
      <trkpt lat="49.18856" lon="6.63546">
        <ele>181.53</ele>
        <time>2018-02-14T15:03:05.000Z</time>
      </trkpt>
      <trkpt lat="49.18852" lon="6.63558">
        <ele>176.54</ele>
        <time>2018-02-14T15:03:15.000Z</time>
      </trkpt>
      <trkpt lat="49.18848" lon="6.63571">
        <ele>175.36</ele>
        <time>2018-02-14T15:03:25.000Z</time>
      </trkpt>
      <trkpt lat="49.18844" lon="6.63587">
        <ele>169.39</ele>
        <time>2018-02-14T15:03:35.000Z</time>
      </trkpt>
      <trkpt lat="49.18842" lon="6.63596">
        <ele>170.28</ele>
        <time>2018-02-14T15:03:45.000Z</time>
      </trkpt>
      <trkpt lat="49.1884" lon="6.63617">
        <ele>160.62</ele>
        <time>2018-02-14T15:03:55.000Z</time>
      </trkpt>
      <trkpt lat="49.18828" lon="6.63648">
        <ele>178.09</ele>
        <time>2018-02-14T15:04:05.000Z</time>
      </trkpt>
      <trkpt lat="49.18821" lon="6.6367">
        <ele>183.2</ele>
        <time>2018-02-14T15:04:15.000Z</time>
      </trkpt>
      <trkpt lat="49.18816" lon="6.63685">
        <ele>187.86</ele>
        <time>2018-02-14T15:04:25.000Z</time>
      </trkpt>
      <trkpt lat="49.18816" lon="6.63687">
        <ele>186.78</ele>
        <time>2018-02-14T15:04:35.000Z</time>
      </trkpt>
      <trkpt lat="49.18809" lon="6.63714">
        <ele>165.01</ele>
        <time>2018-02-14T15:04:45.000Z</time>
      </trkpt>
      <trkpt lat="49.18803" lon="6.6373">
        <ele>173.21</ele>
        <time>2018-02-14T15:04:55.000Z</time>
      </trkpt>
      <trkpt lat="49.18802" lon="6.63741">
        <ele>174.88</ele>
        <time>2018-02-14T15:05:05.000Z</time>
      </trkpt>
      <trkpt lat="49.188" lon="6.6376">
        <ele>166.94</ele>
        <time>2018-02-14T15:05:15.000Z</time>
      </trkpt>
      <trkpt lat="49.188" lon="6.63762">
        <ele>163.08</ele>
        <time>2018-02-14T15:05:25.000Z</time>
      </trkpt>
      <trkpt lat="49.18796" lon="6.63786">
        <ele>138.55</ele>
        <time>2018-02-14T15:05:35.000Z</time>
      </trkpt>
      <trkpt lat="49.18793" lon="6.63795">
        <ele>141.78</ele>
        <time>2018-02-14T15:05:45.000Z</time>
      </trkpt>
      <trkpt lat="49.18787" lon="6.63806">
        <ele>135.33</ele>
        <time>2018-02-14T15:06:01.000Z</time>
      </trkpt>
      <trkpt lat="49.18785" lon="6.63818">
        <ele>127.91</ele>
        <time>2018-02-14T15:06:11.000Z</time>
      </trkpt>
      <trkpt lat="49.1878" lon="6.63844">
        <ele>132.05</ele>
        <time>2018-02-14T15:06:21.000Z</time>
      </trkpt>
      <trkpt lat="49.18777" lon="6.63872">
        <ele>144.52</ele>
        <time>2018-02-14T15:06:31.000Z</time>
      </trkpt>
      <trkpt lat="49.18779" lon="6.63886">
        <ele>146.7</ele>
        <time>2018-02-14T15:06:41.000Z</time>
      </trkpt>
      <trkpt lat="49.1878" lon="6.63903">
        <ele>142.92</ele>
        <time>2018-02-14T15:06:51.000Z</time>
      </trkpt>
      <trkpt lat="49.18786" lon="6.63912">
        <ele>143.87</ele>
        <time>2018-02-14T15:07:01.000Z</time>
      </trkpt>
      <trkpt lat="49.18791" lon="6.63924">
        <ele>145.62</ele>
        <time>2018-02-14T15:07:11.000Z</time>
      </trkpt>
      <trkpt lat="49.18787" lon="6.63961">
        <ele>159.64</ele>
        <time>2018-02-14T15:07:21.000Z</time>
      </trkpt>
      <trkpt lat="49.18791" lon="6.63979">
        <ele>163.64</ele>
        <time>2018-02-14T15:07:31.000Z</time>
      </trkpt>
      <trkpt lat="49.18796" lon="6.63995">
        <ele>167.95</ele>
        <time>2018-02-14T15:07:41.000Z</time>
      </trkpt>
      <trkpt lat="49.188" lon="6.64013">
        <ele>168.31</ele>
        <time>2018-02-14T15:07:51.000Z</time>
      </trkpt>
      <trkpt lat="49.18805" lon="6.64028">
        <ele>168.11</ele>
        <time>2018-02-14T15:08:01.000Z</time>
      </trkpt>
      <trkpt lat="49.18808" lon="6.64047">
        <ele>166.48</ele>
        <time>2018-02-14T15:08:11.000Z</time>
      </trkpt>
      <trkpt lat="49.1881" lon="6.64064">
        <ele>170.27</ele>
        <time>2018-02-14T15:08:21.000Z</time>
      </trkpt>
      <trkpt lat="49.1881" lon="6.64084">
        <ele>175.84</ele>
        <time>2018-02-14T15:08:31.000Z</time>
      </trkpt>
      <trkpt lat="49.18814" lon="6.641">
        <ele>173.84</ele>
        <time>2018-02-14T15:08:41.000Z</time>
      </trkpt>
      <trkpt lat="49.1881" lon="6.64124">
        <ele>170.84</ele>
        <time>2018-02-14T15:08:51.000Z</time>
      </trkpt>
      <trkpt lat="49.18811" lon="6.64141">
        <ele>166.58</ele>
        <time>2018-02-14T15:09:01.000Z</time>
      </trkpt>
      <trkpt lat="49.18814" lon="6.64157">
        <ele>157.47</ele>
        <time>2018-02-14T15:09:11.000Z</time>
      </trkpt>
      <trkpt lat="49.1882" lon="6.64174">
        <ele>152.57</ele>
        <time>2018-02-14T15:09:21.000Z</time>
      </trkpt>
      <trkpt lat="49.1882" lon="6.64193">
        <ele>160.46</ele>
        <time>2018-02-14T15:09:31.000Z</time>
      </trkpt>
      <trkpt lat="49.18817" lon="6.64219">
        <ele>174.55</ele>
        <time>2018-02-14T15:09:41.000Z</time>
      </trkpt>
      <trkpt lat="49.18823" lon="6.64232">
        <ele>167.95</ele>
        <time>2018-02-14T15:09:51.000Z</time>
      </trkpt>
      <trkpt lat="49.18829" lon="6.64247">
        <ele>160.76</ele>
        <time>2018-02-14T15:10:01.000Z</time>
      </trkpt>
      <trkpt lat="49.18832" lon="6.64261">
        <ele>157.21</ele>
        <time>2018-02-14T15:10:11.000Z</time>
      </trkpt>
      <trkpt lat="49.18837" lon="6.64276">
        <ele>155.62</ele>
        <time>2018-02-14T15:10:21.000Z</time>
      </trkpt>
      <trkpt lat="49.18842" lon="6.64298">
        <ele>154.88</ele>
        <time>2018-02-14T15:10:31.000Z</time>
      </trkpt>
      <trkpt lat="49.18847" lon="6.64316">
        <ele>151.67</ele>
        <time>2018-02-14T15:10:41.000Z</time>
      </trkpt>
      <trkpt lat="49.18848" lon="6.64336">
        <ele>150.6</ele>
        <time>2018-02-14T15:10:51.000Z</time>
      </trkpt>
      <trkpt lat="49.18845" lon="6.6436">
        <ele>148.73</ele>
        <time>2018-02-14T15:11:01.000Z</time>
      </trkpt>
      <trkpt lat="49.18846" lon="6.64375">
        <ele>153.19</ele>
        <time>2018-02-14T15:11:11.000Z</time>
      </trkpt>
      <trkpt lat="49.18846" lon="6.64391">
        <ele>153.45</ele>
        <time>2018-02-14T15:11:21.000Z</time>
      </trkpt>
      <trkpt lat="49.18846" lon="6.64411">
        <ele>151.87</ele>
        <time>2018-02-14T15:11:31.000Z</time>
      </trkpt>
      <trkpt lat="49.18836" lon="6.64442">
        <ele>161.17</ele>
        <time>2018-02-14T15:11:41.000Z</time>
      </trkpt>
      <trkpt lat="49.18829" lon="6.64463">
        <ele>166.93</ele>
        <time>2018-02-14T15:11:51.000Z</time>
      </trkpt>
      <trkpt lat="49.18827" lon="6.64482">
        <ele>171.01</ele>
        <time>2018-02-14T15:12:01.000Z</time>
      </trkpt>
      <trkpt lat="49.18826" lon="6.64498">
        <ele>174.16</ele>
        <time>2018-02-14T15:12:11.000Z</time>
      </trkpt>
      <trkpt lat="49.18827" lon="6.64513">
        <ele>174.46</ele>
        <time>2018-02-14T15:12:21.000Z</time>
      </trkpt>
      <trkpt lat="49.18827" lon="6.6453">
        <ele>168.41</ele>
        <time>2018-02-14T15:12:31.000Z</time>
      </trkpt>
      <trkpt lat="49.18829" lon="6.64546">
        <ele>168.46</ele>
        <time>2018-02-14T15:12:41.000Z</time>
      </trkpt>
      <trkpt lat="49.18829" lon="6.64566">
        <ele>164.63</ele>
        <time>2018-02-14T15:12:51.000Z</time>
      </trkpt>
      <trkpt lat="49.18831" lon="6.64589">
        <ele>167.14</ele>
        <time>2018-02-14T15:13:01.000Z</time>
      </trkpt>
      <trkpt lat="49.18832" lon="6.64615">
        <ele>171.58</ele>
        <time>2018-02-14T15:13:11.000Z</time>
      </trkpt>
      <trkpt lat="49.18835" lon="6.64633">
        <ele>171.04</ele>
        <time>2018-02-14T15:13:21.000Z</time>
      </trkpt>
      <trkpt lat="49.18841" lon="6.64652">
        <ele>170.34</ele>
        <time>2018-02-14T15:13:31.000Z</time>
      </trkpt>
      <trkpt lat="49.18846" lon="6.64672">
        <ele>169.55</ele>
        <time>2018-02-14T15:13:41.000Z</time>
      </trkpt>
      <trkpt lat="49.1885" lon="6.64687">
        <ele>165.51</ele>
        <time>2018-02-14T15:13:51.000Z</time>
      </trkpt>
      <trkpt lat="49.18855" lon="6.64699">
        <ele>160.47</ele>
        <time>2018-02-14T15:14:01.000Z</time>
      </trkpt>
      <trkpt lat="49.18862" lon="6.64712">
        <ele>161.2</ele>
        <time>2018-02-14T15:14:11.000Z</time>
      </trkpt>
      <trkpt lat="49.18867" lon="6.64728">
        <ele>161.16</ele>
        <time>2018-02-14T15:14:21.000Z</time>
      </trkpt>
      <trkpt lat="49.1887" lon="6.64747">
        <ele>157.53</ele>
        <time>2018-02-14T15:14:31.000Z</time>
      </trkpt>
      <trkpt lat="49.18873" lon="6.64766">
        <ele>153.76</ele>
        <time>2018-02-14T15:14:41.000Z</time>
      </trkpt>
      <trkpt lat="49.18871" lon="6.64788">
        <ele>157.84</ele>
        <time>2018-02-14T15:14:51.000Z</time>
      </trkpt>
      <trkpt lat="49.18872" lon="6.64807">
        <ele>159.09</ele>
        <time>2018-02-14T15:15:01.000Z</time>
      </trkpt>
      <trkpt lat="49.18875" lon="6.64823">
        <ele>159.84</ele>
        <time>2018-02-14T15:15:11.000Z</time>
      </trkpt>
      <trkpt lat="49.18878" lon="6.64843">
        <ele>157.32</ele>
        <time>2018-02-14T15:15:21.000Z</time>
      </trkpt>
      <trkpt lat="49.18879" lon="6.64859">
        <ele>157.47</ele>
        <time>2018-02-14T15:15:31.000Z</time>
      </trkpt>
      <trkpt lat="49.18877" lon="6.64879">
        <ele>161.18</ele>
        <time>2018-02-14T15:15:41.000Z</time>
      </trkpt>
      <trkpt lat="49.18874" lon="6.64892">
        <ele>168.16</ele>
        <time>2018-02-14T15:15:51.000Z</time>
      </trkpt>
      <trkpt lat="49.18875" lon="6.64901">
        <ele>159.08</ele>
        <time>2018-02-14T15:16:08.000Z</time>
      </trkpt>
      <trkpt lat="49.18876" lon="6.64912">
        <ele>154.58</ele>
        <time>2018-02-14T15:16:18.000Z</time>
      </trkpt>
      <trkpt lat="49.18877" lon="6.64927">
        <ele>150.09</ele>
        <time>2018-02-14T15:16:28.000Z</time>
      </trkpt>
      <trkpt lat="49.18872" lon="6.64946">
        <ele>147.83</ele>
        <time>2018-02-14T15:16:38.000Z</time>
      </trkpt>
      <trkpt lat="49.18867" lon="6.64964">
        <ele>151.97</ele>
        <time>2018-02-14T15:16:48.000Z</time>
      </trkpt>
      <trkpt lat="49.18868" lon="6.64977">
        <ele>148.61</ele>
        <time>2018-02-14T15:16:58.000Z</time>
      </trkpt>
      <trkpt lat="49.18867" lon="6.64984">
        <ele>146.16</ele>
        <time>2018-02-14T15:17:08.000Z</time>
      </trkpt>
      <trkpt lat="49.18862" lon="6.65009">
        <ele>147.35</ele>
        <time>2018-02-14T15:17:18.000Z</time>
      </trkpt>
      <trkpt lat="49.18857" lon="6.6503">
        <ele>155.3</ele>
        <time>2018-02-14T15:17:28.000Z</time>
      </trkpt>
      <trkpt lat="49.18851" lon="6.65051">
        <ele>155.35</ele>
        <time>2018-02-14T15:17:38.000Z</time>
      </trkpt>
      <trkpt lat="49.18844" lon="6.65068">
        <ele>162.83</ele>
        <time>2018-02-14T15:17:48.000Z</time>
      </trkpt>
      <trkpt lat="49.18843" lon="6.65088">
        <ele>164.94</ele>
        <time>2018-02-14T15:17:58.000Z</time>
      </trkpt>
      <trkpt lat="49.1884" lon="6.6511">
        <ele>162.9</ele>
        <time>2018-02-14T15:18:08.000Z</time>
      </trkpt>
      <trkpt lat="49.18839" lon="6.65136">
        <ele>167.96</ele>
        <time>2018-02-14T15:18:18.000Z</time>
      </trkpt>
      <trkpt lat="49.18839" lon="6.65158">
        <ele>168.89</ele>
        <time>2018-02-14T15:18:28.000Z</time>
      </trkpt>
      <trkpt lat="49.18846" lon="6.65169">
        <ele>164.74</ele>
        <time>2018-02-14T15:18:38.000Z</time>
      </trkpt>
      <trkpt lat="49.18849" lon="6.65185">
        <ele>160.8</ele>
        <time>2018-02-14T15:18:48.000Z</time>
      </trkpt>
      <trkpt lat="49.1885" lon="6.65205">
        <ele>154.46</ele>
        <time>2018-02-14T15:18:58.000Z</time>
      </trkpt>
      <trkpt lat="49.18847" lon="6.65233">
        <ele>162.87</ele>
        <time>2018-02-14T15:19:08.000Z</time>
      </trkpt>
      <trkpt lat="49.18849" lon="6.65255">
        <ele>167.36</ele>
        <time>2018-02-14T15:19:18.000Z</time>
      </trkpt>
      <trkpt lat="49.18854" lon="6.6527">
        <ele>161.96</ele>
        <time>2018-02-14T15:19:28.000Z</time>
      </trkpt>
      <trkpt lat="49.18855" lon="6.65291">
        <ele>163.34</ele>
        <time>2018-02-14T15:19:38.000Z</time>
      </trkpt>
      <trkpt lat="49.18858" lon="6.6531">
        <ele>156.62</ele>
        <time>2018-02-14T15:19:48.000Z</time>
      </trkpt>
      <trkpt lat="49.18859" lon="6.65332">
        <ele>163.41</ele>
        <time>2018-02-14T15:19:58.000Z</time>
      </trkpt>
      <trkpt lat="49.18865" lon="6.65353">
        <ele>159.13</ele>
        <time>2018-02-14T15:20:08.000Z</time>
      </trkpt>
      <trkpt lat="49.18873" lon="6.65363">
        <ele>148.93</ele>
        <time>2018-02-14T15:20:18.000Z</time>
      </trkpt>
      <trkpt lat="49.18876" lon="6.65387">
        <ele>154.44</ele>
        <time>2018-02-14T15:20:28.000Z</time>
      </trkpt>
      <trkpt lat="49.18875" lon="6.65413">
        <ele>160.78</ele>
        <time>2018-02-14T15:20:38.000Z</time>
      </trkpt>
      <trkpt lat="49.18876" lon="6.65434">
        <ele>162.08</ele>
        <time>2018-02-14T15:20:48.000Z</time>
      </trkpt>
      <trkpt lat="49.18879" lon="6.65451">
        <ele>160.28</ele>
        <time>2018-02-14T15:20:58.000Z</time>
      </trkpt>
      <trkpt lat="49.18883" lon="6.6547">
        <ele>157.8</ele>
        <time>2018-02-14T15:21:08.000Z</time>
      </trkpt>
      <trkpt lat="49.18888" lon="6.65486">
        <ele>153.24</ele>
        <time>2018-02-14T15:21:18.000Z</time>
      </trkpt>
      <trkpt lat="49.18891" lon="6.6551">
        <ele>162.31</ele>
        <time>2018-02-14T15:21:28.000Z</time>
      </trkpt>
      <trkpt lat="49.18896" lon="6.65524">
        <ele>157.94</ele>
        <time>2018-02-14T15:21:38.000Z</time>
      </trkpt>
      <trkpt lat="49.18895" lon="6.65546">
        <ele>160.32</ele>
        <time>2018-02-14T15:21:48.000Z</time>
      </trkpt>
      <trkpt lat="49.18897" lon="6.65561">
        <ele>158.39</ele>
        <time>2018-02-14T15:21:58.000Z</time>
      </trkpt>
      <trkpt lat="49.18899" lon="6.65568">
        <ele>158.12</ele>
        <time>2018-02-14T15:22:35.000Z</time>
      </trkpt>
      <trkpt lat="49.189" lon="6.65577">
        <ele>156.2</ele>
        <time>2018-02-14T15:22:45.000Z</time>
      </trkpt>
      <trkpt lat="49.18905" lon="6.65592">
        <ele>151.77</ele>
        <time>2018-02-14T15:22:55.000Z</time>
      </trkpt>
      <trkpt lat="49.18905" lon="6.65617">
        <ele>155.63</ele>
        <time>2018-02-14T15:23:05.000Z</time>
      </trkpt>
      <trkpt lat="49.18907" lon="6.65632">
        <ele>154.55</ele>
        <time>2018-02-14T15:23:15.000Z</time>
      </trkpt>
      <trkpt lat="49.18911" lon="6.65641">
        <ele>151.18</ele>
        <time>2018-02-14T15:23:25.000Z</time>
      </trkpt>
      <trkpt lat="49.18914" lon="6.65652">
        <ele>146.25</ele>
        <time>2018-02-14T15:23:35.000Z</time>
      </trkpt>
      <trkpt lat="49.18908" lon="6.65662">
        <ele>148.72</ele>
        <time>2018-02-14T15:24:10.000Z</time>
      </trkpt>
      <trkpt lat="49.18906" lon="6.65677">
        <ele>147.99</ele>
        <time>2018-02-14T15:24:20.000Z</time>
      </trkpt>
      <trkpt lat="49.18911" lon="6.65691">
        <ele>145.71</ele>
        <time>2018-02-14T15:24:30.000Z</time>
      </trkpt>
      <trkpt lat="49.18914" lon="6.65709">
        <ele>151.26</ele>
        <time>2018-02-14T15:24:40.000Z</time>
      </trkpt>
      <trkpt lat="49.18918" lon="6.65722">
        <ele>144.82</ele>
        <time>2018-02-14T15:24:50.000Z</time>
      </trkpt>
      <trkpt lat="49.18919" lon="6.65739">
        <ele>140.07</ele>
        <time>2018-02-14T15:25:00.000Z</time>
      </trkpt>
      <trkpt lat="49.1892" lon="6.65754">
        <ele>133.4</ele>
        <time>2018-02-14T15:25:10.000Z</time>
      </trkpt>
      <trkpt lat="49.18924" lon="6.65772">
        <ele>133.14</ele>
        <time>2018-02-14T15:25:20.000Z</time>
      </trkpt>
      <trkpt lat="49.18925" lon="6.6579">
        <ele>131.55</ele>
        <time>2018-02-14T15:25:30.000Z</time>
      </trkpt>
      <trkpt lat="49.18924" lon="6.6581">
        <ele>132.7</ele>
        <time>2018-02-14T15:25:40.000Z</time>
      </trkpt>
      <trkpt lat="49.18925" lon="6.65833">
        <ele>134.05</ele>
        <time>2018-02-14T15:25:50.000Z</time>
      </trkpt>
      <trkpt lat="49.18929" lon="6.65848">
        <ele>139.54</ele>
        <time>2018-02-14T15:26:00.000Z</time>
      </trkpt>
      <trkpt lat="49.18931" lon="6.65867">
        <ele>140.57</ele>
        <time>2018-02-14T15:26:10.000Z</time>
      </trkpt>
      <trkpt lat="49.1893" lon="6.65886">
        <ele>138.77</ele>
        <time>2018-02-14T15:26:20.000Z</time>
      </trkpt>
      <trkpt lat="49.18922" lon="6.6591">
        <ele>145.45</ele>
        <time>2018-02-14T15:26:30.000Z</time>
      </trkpt>
      <trkpt lat="49.18911" lon="6.6594">
        <ele>152.9</ele>
        <time>2018-02-14T15:26:40.000Z</time>
      </trkpt>
      <trkpt lat="49.18903" lon="6.65956">
        <ele>155.18</ele>
        <time>2018-02-14T15:26:50.000Z</time>
      </trkpt>
      <trkpt lat="49.18892" lon="6.65972">
        <ele>167.57</ele>
        <time>2018-02-14T15:27:00.000Z</time>
      </trkpt>
      <trkpt lat="49.1889" lon="6.65973">
        <ele>168.94</ele>
        <time>2018-02-14T15:27:10.000Z</time>
      </trkpt>
      <trkpt lat="49.18879" lon="6.65975">
        <ele>166.62</ele>
        <time>2018-02-14T15:27:20.000Z</time>
      </trkpt>
      <trkpt lat="49.18868" lon="6.65976">
        <ele>163.38</ele>
        <time>2018-02-14T15:27:30.000Z</time>
      </trkpt>
      <trkpt lat="49.18856" lon="6.6598">
        <ele>158.8</ele>
        <time>2018-02-14T15:27:40.000Z</time>
      </trkpt>
      <trkpt lat="49.18847" lon="6.65982">
        <ele>153.61</ele>
        <time>2018-02-14T15:27:50.000Z</time>
      </trkpt>
      <trkpt lat="49.18836" lon="6.65986">
        <ele>150.81</ele>
        <time>2018-02-14T15:28:00.000Z</time>
      </trkpt>
      <trkpt lat="49.18825" lon="6.65991">
        <ele>150.25</ele>
        <time>2018-02-14T15:28:10.000Z</time>
      </trkpt>
      <trkpt lat="49.18813" lon="6.65995">
        <ele>148.28</ele>
        <time>2018-02-14T15:28:20.000Z</time>
      </trkpt>
      <trkpt lat="49.18803" lon="6.65997">
        <ele>142.83</ele>
        <time>2018-02-14T15:28:30.000Z</time>
      </trkpt>
      <trkpt lat="49.18794" lon="6.66003">
        <ele>139.22</ele>
        <time>2018-02-14T15:28:40.000Z</time>
      </trkpt>
      <trkpt lat="49.18784" lon="6.6601">
        <ele>138.86</ele>
        <time>2018-02-14T15:28:50.000Z</time>
      </trkpt>
      <trkpt lat="49.18773" lon="6.66016">
        <ele>139.91</ele>
        <time>2018-02-14T15:29:00.000Z</time>
      </trkpt>
      <trkpt lat="49.18763" lon="6.66024">
        <ele>142.86</ele>
        <time>2018-02-14T15:29:10.000Z</time>
      </trkpt>
      <trkpt lat="49.18761" lon="6.66027">
        <ele>140.34</ele>
        <time>2018-02-14T15:29:20.000Z</time>
      </trkpt>
      <trkpt lat="49.18757" lon="6.66031">
        <ele>145.14</ele>
        <time>2018-02-14T15:29:34.000Z</time>
      </trkpt>
      <trkpt lat="49.18748" lon="6.66038">
        <ele>146.1</ele>
        <time>2018-02-14T15:29:44.000Z</time>
      </trkpt>
      <trkpt lat="49.18738" lon="6.66041">
        <ele>144.64</ele>
        <time>2018-02-14T15:29:54.000Z</time>
      </trkpt>
      <trkpt lat="49.18726" lon="6.66046">
        <ele>143.17</ele>
        <time>2018-02-14T15:30:04.000Z</time>
      </trkpt>
      <trkpt lat="49.18716" lon="6.66052">
        <ele>141.47</ele>
        <time>2018-02-14T15:30:14.000Z</time>
      </trkpt>
      <trkpt lat="49.18703" lon="6.66058">
        <ele>140.15</ele>
        <time>2018-02-14T15:30:24.000Z</time>
      </trkpt>
      <trkpt lat="49.18692" lon="6.66063">
        <ele>139.95</ele>
        <time>2018-02-14T15:30:34.000Z</time>
      </trkpt>
      <trkpt lat="49.1868" lon="6.66068">
        <ele>140.07</ele>
        <time>2018-02-14T15:30:44.000Z</time>
      </trkpt>
      <trkpt lat="49.18669" lon="6.66072">
        <ele>139.47</ele>
        <time>2018-02-14T15:30:54.000Z</time>
      </trkpt>
      <trkpt lat="49.18657" lon="6.66074">
        <ele>138.31</ele>
        <time>2018-02-14T15:31:04.000Z</time>
      </trkpt>
      <trkpt lat="49.18646" lon="6.66076">
        <ele>135.04</ele>
        <time>2018-02-14T15:31:14.000Z</time>
      </trkpt>
      <trkpt lat="49.18634" lon="6.66081">
        <ele>134.04</ele>
        <time>2018-02-14T15:31:24.000Z</time>
      </trkpt>
      <trkpt lat="49.18621" lon="6.66086">
        <ele>134.62</ele>
        <time>2018-02-14T15:31:34.000Z</time>
      </trkpt>
      <trkpt lat="49.18608" lon="6.66097">
        <ele>134.7</ele>
        <time>2018-02-14T15:31:44.000Z</time>
      </trkpt>
      <trkpt lat="49.18595" lon="6.66103">
        <ele>136.75</ele>
        <time>2018-02-14T15:31:54.000Z</time>
      </trkpt>
      <trkpt lat="49.18583" lon="6.6611">
        <ele>137.22</ele>
        <time>2018-02-14T15:32:04.000Z</time>
      </trkpt>
      <trkpt lat="49.18571" lon="6.66113">
        <ele>138.61</ele>
        <time>2018-02-14T15:32:14.000Z</time>
      </trkpt>
      <trkpt lat="49.18566" lon="6.66118">
        <ele>137.16</ele>
        <time>2018-02-14T15:32:24.000Z</time>
      </trkpt>
      <trkpt lat="49.18564" lon="6.66131">
        <ele>135.86</ele>
        <time>2018-02-14T15:32:34.000Z</time>
      </trkpt>
      <trkpt lat="49.18558" lon="6.66139">
        <ele>130.31</ele>
        <time>2018-02-14T15:32:44.000Z</time>
      </trkpt>
      <trkpt lat="49.18546" lon="6.66145">
        <ele>121.71</ele>
        <time>2018-02-14T15:32:54.000Z</time>
      </trkpt>
      <trkpt lat="49.18529" lon="6.66154">
        <ele>138.6</ele>
        <time>2018-02-14T15:33:04.000Z</time>
      </trkpt>
      <trkpt lat="49.18512" lon="6.66159">
        <ele>155.95</ele>
        <time>2018-02-14T15:33:14.000Z</time>
      </trkpt>
      <trkpt lat="49.18496" lon="6.66154">
        <ele>161.95</ele>
        <time>2018-02-14T15:33:24.000Z</time>
      </trkpt>
      <trkpt lat="49.18485" lon="6.66148">
        <ele>163.45</ele>
        <time>2018-02-14T15:33:34.000Z</time>
      </trkpt>
      <trkpt lat="49.18471" lon="6.66141">
        <ele>165.54</ele>
        <time>2018-02-14T15:33:44.000Z</time>
      </trkpt>
      <trkpt lat="49.18459" lon="6.66135">
        <ele>167.41</ele>
        <time>2018-02-14T15:33:54.000Z</time>
      </trkpt>
      <trkpt lat="49.18446" lon="6.66127">
        <ele>166.7</ele>
        <time>2018-02-14T15:34:04.000Z</time>
      </trkpt>
      <trkpt lat="49.18433" lon="6.66117">
        <ele>165.84</ele>
        <time>2018-02-14T15:34:14.000Z</time>
      </trkpt>
      <trkpt lat="49.18421" lon="6.66107">
        <ele>166.92</ele>
        <time>2018-02-14T15:34:24.000Z</time>
      </trkpt>
      <trkpt lat="49.18408" lon="6.661">
        <ele>166.59</ele>
        <time>2018-02-14T15:34:34.000Z</time>
      </trkpt>
      <trkpt lat="49.18397" lon="6.66092">
        <ele>166.53</ele>
        <time>2018-02-14T15:34:44.000Z</time>
      </trkpt>
      <trkpt lat="49.18383" lon="6.66084">
        <ele>166.58</ele>
        <time>2018-02-14T15:34:54.000Z</time>
      </trkpt>
      <trkpt lat="49.18373" lon="6.66077">
        <ele>166.99</ele>
        <time>2018-02-14T15:35:04.000Z</time>
      </trkpt>
      <trkpt lat="49.1837" lon="6.66081">
        <ele>164.3</ele>
        <time>2018-02-14T15:35:14.000Z</time>
      </trkpt>
      <trkpt lat="49.18357" lon="6.66087">
        <ele>163.55</ele>
        <time>2018-02-14T15:35:24.000Z</time>
      </trkpt>
      <trkpt lat="49.18344" lon="6.66085">
        <ele>161.03</ele>
        <time>2018-02-14T15:35:34.000Z</time>
      </trkpt>
      <trkpt lat="49.18329" lon="6.66084">
        <ele>161.74</ele>
        <time>2018-02-14T15:35:44.000Z</time>
      </trkpt>
      <trkpt lat="49.18316" lon="6.66081">
        <ele>163.65</ele>
        <time>2018-02-14T15:35:54.000Z</time>
      </trkpt>
      <trkpt lat="49.18301" lon="6.66078">
        <ele>163.79</ele>
        <time>2018-02-14T15:36:04.000Z</time>
      </trkpt>
      <trkpt lat="49.18287" lon="6.66077">
        <ele>163.08</ele>
        <time>2018-02-14T15:36:14.000Z</time>
      </trkpt>
      <trkpt lat="49.18277" lon="6.66078">
        <ele>163.75</ele>
        <time>2018-02-14T15:36:24.000Z</time>
      </trkpt>
      <trkpt lat="49.18267" lon="6.66076">
        <ele>163.67</ele>
        <time>2018-02-14T15:36:34.000Z</time>
      </trkpt>
      <trkpt lat="49.18255" lon="6.66068">
        <ele>163.76</ele>
        <time>2018-02-14T15:36:44.000Z</time>
      </trkpt>
      <trkpt lat="49.18244" lon="6.66062">
        <ele>157.72</ele>
        <time>2018-02-14T15:36:54.000Z</time>
      </trkpt>
      <trkpt lat="49.18244" lon="6.66066">
        <ele>152.33</ele>
        <time>2018-02-14T15:37:04.000Z</time>
      </trkpt>
      <trkpt lat="49.18246" lon="6.66074">
        <ele>147.41</ele>
        <time>2018-02-14T15:37:14.000Z</time>
      </trkpt>
      <trkpt lat="49.18239" lon="6.66093">
        <ele>141.62</ele>
        <time>2018-02-14T15:37:24.000Z</time>
      </trkpt>
      <trkpt lat="49.18228" lon="6.66106">
        <ele>140.51</ele>
        <time>2018-02-14T15:37:34.000Z</time>
      </trkpt>
      <trkpt lat="49.18215" lon="6.66119">
        <ele>140.95</ele>
        <time>2018-02-14T15:37:44.000Z</time>
      </trkpt>
      <trkpt lat="49.18203" lon="6.66135">
        <ele>142.67</ele>
        <time>2018-02-14T15:37:54.000Z</time>
      </trkpt>
      <trkpt lat="49.1819" lon="6.66144">
        <ele>142.99</ele>
        <time>2018-02-14T15:38:04.000Z</time>
      </trkpt>
      <trkpt lat="49.18177" lon="6.66161">
        <ele>147.56</ele>
        <time>2018-02-14T15:38:14.000Z</time>
      </trkpt>
      <trkpt lat="49.18163" lon="6.66175">
        <ele>151.51</ele>
        <time>2018-02-14T15:38:24.000Z</time>
      </trkpt>
      <trkpt lat="49.18151" lon="6.66184">
        <ele>150.19</ele>
        <time>2018-02-14T15:38:34.000Z</time>
      </trkpt>
      <trkpt lat="49.18139" lon="6.66195">
        <ele>151.51</ele>
        <time>2018-02-14T15:38:44.000Z</time>
      </trkpt>
      <trkpt lat="49.18125" lon="6.66208">
        <ele>154.28</ele>
        <time>2018-02-14T15:38:54.000Z</time>
      </trkpt>
      <trkpt lat="49.18112" lon="6.66216">
        <ele>157.76</ele>
        <time>2018-02-14T15:39:04.000Z</time>
      </trkpt>
      <trkpt lat="49.18098" lon="6.66222">
        <ele>160.07</ele>
        <time>2018-02-14T15:39:14.000Z</time>
      </trkpt>
      <trkpt lat="49.18088" lon="6.66223">
        <ele>162</ele>
        <time>2018-02-14T15:39:24.000Z</time>
      </trkpt>
      <trkpt lat="49.18085" lon="6.66235">
        <ele>158.81</ele>
        <time>2018-02-14T15:39:34.000Z</time>
      </trkpt>
      <trkpt lat="49.18081" lon="6.66241">
        <ele>153.38</ele>
        <time>2018-02-14T15:39:44.000Z</time>
      </trkpt>
      <trkpt lat="49.18077" lon="6.66242">
        <ele>151.88</ele>
        <time>2018-02-14T15:39:54.000Z</time>
      </trkpt>
      <trkpt lat="49.18074" lon="6.66246">
        <ele>145.49</ele>
        <time>2018-02-14T15:40:04.000Z</time>
      </trkpt>
      <trkpt lat="49.18073" lon="6.66247">
        <ele>143.94</ele>
        <time>2018-02-14T15:40:14.000Z</time>
      </trkpt>
      <trkpt lat="49.1806" lon="6.66253">
        <ele>127.48</ele>
        <time>2018-02-14T15:40:24.000Z</time>
      </trkpt>
      <trkpt lat="49.18048" lon="6.66256">
        <ele>120.09</ele>
        <time>2018-02-14T15:40:34.000Z</time>
      </trkpt>
      <trkpt lat="49.18041" lon="6.66265">
        <ele>114.03</ele>
        <time>2018-02-14T15:40:44.000Z</time>
      </trkpt>
      <trkpt lat="49.1803" lon="6.66281">
        <ele>116.61</ele>
        <time>2018-02-14T15:40:54.000Z</time>
      </trkpt>
      <trkpt lat="49.18007" lon="6.66326">
        <ele>140.87</ele>
        <time>2018-02-14T15:41:04.000Z</time>
      </trkpt>
      <trkpt lat="49.17993" lon="6.66351">
        <ele>150.25</ele>
        <time>2018-02-14T15:41:14.000Z</time>
      </trkpt>
      <trkpt lat="49.17983" lon="6.66366">
        <ele>153.57</ele>
        <time>2018-02-14T15:41:24.000Z</time>
      </trkpt>
      <trkpt lat="49.17975" lon="6.66375">
        <ele>152.73</ele>
        <time>2018-02-14T15:41:34.000Z</time>
      </trkpt>
      <trkpt lat="49.17968" lon="6.66383">
        <ele>148.16</ele>
        <time>2018-02-14T15:41:44.000Z</time>
      </trkpt>
      <trkpt lat="49.17963" lon="6.66391">
        <ele>143.8</ele>
        <time>2018-02-14T15:41:54.000Z</time>
      </trkpt>
      <trkpt lat="49.17954" lon="6.66411">
        <ele>146.46</ele>
        <time>2018-02-14T15:42:04.000Z</time>
      </trkpt>
      <trkpt lat="49.17943" lon="6.66432">
        <ele>149.21</ele>
        <time>2018-02-14T15:42:14.000Z</time>
      </trkpt>
      <trkpt lat="49.17932" lon="6.66455">
        <ele>151.28</ele>
        <time>2018-02-14T15:42:24.000Z</time>
      </trkpt>
      <trkpt lat="49.17922" lon="6.66475">
        <ele>154.22</ele>
        <time>2018-02-14T15:42:34.000Z</time>
      </trkpt>
      <trkpt lat="49.17913" lon="6.6649">
        <ele>155.2</ele>
        <time>2018-02-14T15:42:44.000Z</time>
      </trkpt>
      <trkpt lat="49.17902" lon="6.6651">
        <ele>159.64</ele>
        <time>2018-02-14T15:42:54.000Z</time>
      </trkpt>
      <trkpt lat="49.17893" lon="6.66526">
        <ele>161.17</ele>
        <time>2018-02-14T15:43:04.000Z</time>
      </trkpt>
      <trkpt lat="49.17884" lon="6.66544">
        <ele>161.9</ele>
        <time>2018-02-14T15:43:14.000Z</time>
      </trkpt>
      <trkpt lat="49.17875" lon="6.66559">
        <ele>162.8</ele>
        <time>2018-02-14T15:43:24.000Z</time>
      </trkpt>
      <trkpt lat="49.17865" lon="6.66577">
        <ele>164.44</ele>
        <time>2018-02-14T15:43:34.000Z</time>
      </trkpt>
      <trkpt lat="49.17856" lon="6.6659">
        <ele>164.77</ele>
        <time>2018-02-14T15:43:44.000Z</time>
      </trkpt>
      <trkpt lat="49.1785" lon="6.66607">
        <ele>165.79</ele>
        <time>2018-02-14T15:43:54.000Z</time>
      </trkpt>
      <trkpt lat="49.17854" lon="6.66624">
        <ele>168.64</ele>
        <time>2018-02-14T15:44:04.000Z</time>
      </trkpt>
      <trkpt lat="49.17854" lon="6.6663">
        <ele>171.63</ele>
        <time>2018-02-14T15:44:14.000Z</time>
      </trkpt>
      <trkpt lat="49.1785" lon="6.66618">
        <ele>171.07</ele>
        <time>2018-02-14T15:44:24.000Z</time>
      </trkpt>
      <trkpt lat="49.1784" lon="6.66623">
        <ele>167.88</ele>
        <time>2018-02-14T15:44:34.000Z</time>
      </trkpt>
      <trkpt lat="49.17831" lon="6.66633">
        <ele>166.58</ele>
        <time>2018-02-14T15:44:44.000Z</time>
      </trkpt>
      <trkpt lat="49.17823" lon="6.66646">
        <ele>161.79</ele>
        <time>2018-02-14T15:44:54.000Z</time>
      </trkpt>
      <trkpt lat="49.17817" lon="6.66657">
        <ele>158.12</ele>
        <time>2018-02-14T15:45:04.000Z</time>
      </trkpt>
      <trkpt lat="49.17808" lon="6.66672">
        <ele>157.83</ele>
        <time>2018-02-14T15:45:14.000Z</time>
      </trkpt>
      <trkpt lat="49.17799" lon="6.6669">
        <ele>158.45</ele>
        <time>2018-02-14T15:45:24.000Z</time>
      </trkpt>
      <trkpt lat="49.1779" lon="6.66707">
        <ele>160.61</ele>
        <time>2018-02-14T15:45:34.000Z</time>
      </trkpt>
      <trkpt lat="49.17782" lon="6.66719">
        <ele>159.29</ele>
        <time>2018-02-14T15:45:44.000Z</time>
      </trkpt>
      <trkpt lat="49.17772" lon="6.66737">
        <ele>160.34</ele>
        <time>2018-02-14T15:45:54.000Z</time>
      </trkpt>
      <trkpt lat="49.17762" lon="6.66752">
        <ele>159.68</ele>
        <time>2018-02-14T15:46:04.000Z</time>
      </trkpt>
      <trkpt lat="49.17753" lon="6.66769">
        <ele>160.5</ele>
        <time>2018-02-14T15:46:14.000Z</time>
      </trkpt>
      <trkpt lat="49.17744" lon="6.66783">
        <ele>163.68</ele>
        <time>2018-02-14T15:46:24.000Z</time>
      </trkpt>
      <trkpt lat="49.17736" lon="6.66796">
        <ele>163.04</ele>
        <time>2018-02-14T15:46:34.000Z</time>
      </trkpt>
      <trkpt lat="49.17729" lon="6.66811">
        <ele>160.58</ele>
        <time>2018-02-14T15:46:44.000Z</time>
      </trkpt>
      <trkpt lat="49.17719" lon="6.66827">
        <ele>161.61</ele>
        <time>2018-02-14T15:46:54.000Z</time>
      </trkpt>
      <trkpt lat="49.1771" lon="6.66845">
        <ele>164.65</ele>
        <time>2018-02-14T15:47:04.000Z</time>
      </trkpt>
      <trkpt lat="49.177" lon="6.66865">
        <ele>164.99</ele>
        <time>2018-02-14T15:47:14.000Z</time>
      </trkpt>
      <trkpt lat="49.17693" lon="6.66881">
        <ele>164.25</ele>
        <time>2018-02-14T15:47:24.000Z</time>
      </trkpt>
      <trkpt lat="49.17683" lon="6.66899">
        <ele>165.77</ele>
        <time>2018-02-14T15:47:34.000Z</time>
      </trkpt>
      <trkpt lat="49.17674" lon="6.66915">
        <ele>167.12</ele>
        <time>2018-02-14T15:47:44.000Z</time>
      </trkpt>
      <trkpt lat="49.17665" lon="6.66929">
        <ele>169.86</ele>
        <time>2018-02-14T15:47:54.000Z</time>
      </trkpt>
      <trkpt lat="49.17653" lon="6.66944">
        <ele>170.88</ele>
        <time>2018-02-14T15:48:04.000Z</time>
      </trkpt>
      <trkpt lat="49.17641" lon="6.66958">
        <ele>170.84</ele>
        <time>2018-02-14T15:48:14.000Z</time>
      </trkpt>
      <trkpt lat="49.17634" lon="6.6697">
        <ele>169.71</ele>
        <time>2018-02-14T15:48:24.000Z</time>
      </trkpt>
      <trkpt lat="49.1763" lon="6.66978">
        <ele>168.42</ele>
        <time>2018-02-14T15:48:34.000Z</time>
      </trkpt>
      <trkpt lat="49.17626" lon="6.66985">
        <ele>164.95</ele>
        <time>2018-02-14T15:48:44.000Z</time>
      </trkpt>
      <trkpt lat="49.17616" lon="6.66999">
        <ele>165.41</ele>
        <time>2018-02-14T15:48:54.000Z</time>
      </trkpt>
      <trkpt lat="49.17606" lon="6.67018">
        <ele>169.29</ele>
        <time>2018-02-14T15:49:04.000Z</time>
      </trkpt>
      <trkpt lat="49.17597" lon="6.67038">
        <ele>172.18</ele>
        <time>2018-02-14T15:49:14.000Z</time>
      </trkpt>
      <trkpt lat="49.17588" lon="6.67056">
        <ele>174.62</ele>
        <time>2018-02-14T15:49:24.000Z</time>
      </trkpt>
      <trkpt lat="49.1758" lon="6.67073">
        <ele>174.67</ele>
        <time>2018-02-14T15:49:34.000Z</time>
      </trkpt>
      <trkpt lat="49.17574" lon="6.67086">
        <ele>173.46</ele>
        <time>2018-02-14T15:49:44.000Z</time>
      </trkpt>
      <trkpt lat="49.17573" lon="6.67099">
        <ele>171.42</ele>
        <time>2018-02-14T15:49:54.000Z</time>
      </trkpt>
      <trkpt lat="49.17576" lon="6.67126">
        <ele>176.43</ele>
        <time>2018-02-14T15:50:04.000Z</time>
      </trkpt>
      <trkpt lat="49.17584" lon="6.67141">
        <ele>176.39</ele>
        <time>2018-02-14T15:50:14.000Z</time>
      </trkpt>
      <trkpt lat="49.17593" lon="6.67157">
        <ele>175.75</ele>
        <time>2018-02-14T15:50:24.000Z</time>
      </trkpt>
      <trkpt lat="49.17604" lon="6.67173">
        <ele>176.78</ele>
        <time>2018-02-14T15:50:34.000Z</time>
      </trkpt>
      <trkpt lat="49.17609" lon="6.67189">
        <ele>172.17</ele>
        <time>2018-02-14T15:50:44.000Z</time>
      </trkpt>
      <trkpt lat="49.17614" lon="6.67203">
        <ele>162.98</ele>
        <time>2018-02-14T15:50:54.000Z</time>
      </trkpt>
      <trkpt lat="49.17632" lon="6.67216">
        <ele>174.59</ele>
        <time>2018-02-14T15:51:04.000Z</time>
      </trkpt>
      <trkpt lat="49.17647" lon="6.67228">
        <ele>181.28</ele>
        <time>2018-02-14T15:51:14.000Z</time>
      </trkpt>
      <trkpt lat="49.17662" lon="6.67238">
        <ele>182.81</ele>
        <time>2018-02-14T15:51:24.000Z</time>
      </trkpt>
      <trkpt lat="49.17672" lon="6.67253">
        <ele>179.97</ele>
        <time>2018-02-14T15:51:34.000Z</time>
      </trkpt>
      <trkpt lat="49.17685" lon="6.67268">
        <ele>182.81</ele>
        <time>2018-02-14T15:51:44.000Z</time>
      </trkpt>
      <trkpt lat="49.17692" lon="6.67285">
        <ele>182.63</ele>
        <time>2018-02-14T15:51:54.000Z</time>
      </trkpt>
      <trkpt lat="49.17698" lon="6.67301">
        <ele>179.53</ele>
        <time>2018-02-14T15:52:04.000Z</time>
      </trkpt>
      <trkpt lat="49.17703" lon="6.67317">
        <ele>180.21</ele>
        <time>2018-02-14T15:52:14.000Z</time>
      </trkpt>
      <trkpt lat="49.17714" lon="6.67332">
        <ele>178.08</ele>
        <time>2018-02-14T15:52:24.000Z</time>
      </trkpt>
      <trkpt lat="49.1772" lon="6.67348">
        <ele>175.15</ele>
        <time>2018-02-14T15:52:34.000Z</time>
      </trkpt>
      <trkpt lat="49.17727" lon="6.67368">
        <ele>181.05</ele>
        <time>2018-02-14T15:52:44.000Z</time>
      </trkpt>
      <trkpt lat="49.17732" lon="6.67386">
        <ele>178.61</ele>
        <time>2018-02-14T15:52:54.000Z</time>
      </trkpt>
      <trkpt lat="49.17737" lon="6.67397">
        <ele>172.03</ele>
        <time>2018-02-14T15:53:04.000Z</time>
      </trkpt>
      <trkpt lat="49.1774" lon="6.67408">
        <ele>167.2</ele>
        <time>2018-02-14T15:53:14.000Z</time>
      </trkpt>
      <trkpt lat="49.17743" lon="6.67423">
        <ele>163.05</ele>
        <time>2018-02-14T15:53:24.000Z</time>
      </trkpt>
      <trkpt lat="49.17749" lon="6.67443">
        <ele>164.13</ele>
        <time>2018-02-14T15:53:34.000Z</time>
      </trkpt>
      <trkpt lat="49.17752" lon="6.67464">
        <ele>165.34</ele>
        <time>2018-02-14T15:53:44.000Z</time>
      </trkpt>
      <trkpt lat="49.17751" lon="6.67486">
        <ele>161.36</ele>
        <time>2018-02-14T15:53:54.000Z</time>
      </trkpt>
      <trkpt lat="49.17751" lon="6.67508">
        <ele>157.07</ele>
        <time>2018-02-14T15:54:04.000Z</time>
      </trkpt>
      <trkpt lat="49.17752" lon="6.67529">
        <ele>155.65</ele>
        <time>2018-02-14T15:54:14.000Z</time>
      </trkpt>
      <trkpt lat="49.17743" lon="6.67556">
        <ele>159.83</ele>
        <time>2018-02-14T15:54:25.000Z</time>
      </trkpt>
      <trkpt lat="49.17742" lon="6.67558">
        <ele>160.72</ele>
        <time>2018-02-14T15:54:26.000Z</time>
      </trkpt>
    </trkseg>
  </trk>
</gpx>